<?xml version="1.0" encoding="utf-8"?>
<gpx xmlns:xsi="http://www.w3.org/2001/XMLSchema-instance" xmlns:xsd="http://www.w3.org/2001/XMLSchema" version="1.1" creator="Shapelink.com" xmlns="http://www.topografix.com/GPX/1/1" xmlns:gpxtpx="http://www.garmin.com/xmlschemas/TrackPointExtension/v1">
  <metadata>
    <name>Gåing 7.02 km, 2013-11-02</name>
    <desc></desc>
    <author><name>Alexander Engvall</name></author> 
    <time>2013-11-02T14:56:52Z</time>
  </metadata>
  <trk>
    <name>Gåing 7.02 km, 2013-11-02</name>
    <trkseg>
      <trkpt lat="59.4405556" lon="17.9144191">
        <ele>26.8</ele>
        <time>2013-11-02T14:56:52Z</time>
      </trkpt>
      <trkpt lat="59.4406355" lon="17.9144103">
        <ele>26.6</ele>
        <time>2013-11-02T14:56:59Z</time>
      </trkpt>
      <trkpt lat="59.4407278" lon="17.9144401">
        <ele>26.2</ele>
        <time>2013-11-02T14:57:07Z</time>
      </trkpt>
      <trkpt lat="59.440738" lon="17.9144448">
        <ele>26</ele>
        <time>2013-11-02T14:57:08Z</time>
      </trkpt>
      <trkpt lat="59.4407812" lon="17.9144839">
        <ele>25.6</ele>
        <time>2013-11-02T14:57:12Z</time>
      </trkpt>
      <trkpt lat="59.4407881" lon="17.9144795">
        <ele>25.6</ele>
        <time>2013-11-02T14:57:13Z</time>
      </trkpt>
      <trkpt lat="59.4408461" lon="17.9144878">
        <ele>25.2</ele>
        <time>2013-11-02T14:57:18Z</time>
      </trkpt>
      <trkpt lat="59.4408588" lon="17.9144896">
        <ele>25.2</ele>
        <time>2013-11-02T14:57:19Z</time>
      </trkpt>
      <trkpt lat="59.440935" lon="17.9145257">
        <ele>24.8</ele>
        <time>2013-11-02T14:57:25Z</time>
      </trkpt>
      <trkpt lat="59.4410305" lon="17.9145184">
        <ele>24.4</ele>
        <time>2013-11-02T14:57:31Z</time>
      </trkpt>
      <trkpt lat="59.4410871" lon="17.9145476">
        <ele>24.4</ele>
        <time>2013-11-02T14:57:35Z</time>
      </trkpt>
      <trkpt lat="59.4410941" lon="17.9145669">
        <ele>24.2</ele>
        <time>2013-11-02T14:57:36Z</time>
      </trkpt>
      <trkpt lat="59.4411427" lon="17.9146205">
        <ele>23.8</ele>
        <time>2013-11-02T14:57:43Z</time>
      </trkpt>
      <trkpt lat="59.4411885" lon="17.9146627">
        <ele>23.6</ele>
        <time>2013-11-02T14:57:46Z</time>
      </trkpt>
      <trkpt lat="59.4412134" lon="17.9146955">
        <ele>23.4</ele>
        <time>2013-11-02T14:57:48Z</time>
      </trkpt>
      <trkpt lat="59.4412674" lon="17.9147737">
        <ele>23.4</ele>
        <time>2013-11-02T14:57:51Z</time>
      </trkpt>
      <trkpt lat="59.4412961" lon="17.9148153">
        <ele>23.2</ele>
        <time>2013-11-02T14:57:53Z</time>
      </trkpt>
      <trkpt lat="59.4413498" lon="17.9148901">
        <ele>23</ele>
        <time>2013-11-02T14:57:57Z</time>
      </trkpt>
      <trkpt lat="59.4413607" lon="17.9149104">
        <ele>23</ele>
        <time>2013-11-02T14:57:58Z</time>
      </trkpt>
      <trkpt lat="59.4414116" lon="17.9149915">
        <ele>22.8</ele>
        <time>2013-11-02T14:58:01Z</time>
      </trkpt>
      <trkpt lat="59.4414297" lon="17.91504">
        <ele>22.8</ele>
        <time>2013-11-02T14:58:03Z</time>
      </trkpt>
      <trkpt lat="59.4414634" lon="17.9151425">
        <ele>22.8</ele>
        <time>2013-11-02T14:58:07Z</time>
      </trkpt>
      <trkpt lat="59.4414621" lon="17.9151759">
        <ele>22.8</ele>
        <time>2013-11-02T14:58:08Z</time>
      </trkpt>
      <trkpt lat="59.4414526" lon="17.9152638">
        <ele>23.2</ele>
        <time>2013-11-02T14:58:11Z</time>
      </trkpt>
      <trkpt lat="59.4414496" lon="17.915285">
        <ele>23.2</ele>
        <time>2013-11-02T14:58:12Z</time>
      </trkpt>
      <trkpt lat="59.4414326" lon="17.9153378">
        <ele>23.2</ele>
        <time>2013-11-02T14:58:15Z</time>
      </trkpt>
      <trkpt lat="59.4414085" lon="17.9154199">
        <ele>23</ele>
        <time>2013-11-02T14:58:18Z</time>
      </trkpt>
      <trkpt lat="59.4413741" lon="17.9155225">
        <ele>23</ele>
        <time>2013-11-02T14:58:22Z</time>
      </trkpt>
      <trkpt lat="59.4413366" lon="17.9156519">
        <ele>23</ele>
        <time>2013-11-02T14:58:27Z</time>
      </trkpt>
      <trkpt lat="59.4413124" lon="17.915683">
        <ele>23</ele>
        <time>2013-11-02T14:58:29Z</time>
      </trkpt>
      <trkpt lat="59.4413785" lon="17.9159833">
        <ele>37</ele>
        <time>2013-11-02T14:59:31Z</time>
      </trkpt>
      <trkpt lat="59.4413519" lon="17.9160019">
        <ele>37.2</ele>
        <time>2013-11-02T14:59:33Z</time>
      </trkpt>
      <trkpt lat="59.4413293" lon="17.9161725">
        <ele>37.4</ele>
        <time>2013-11-02T14:59:39Z</time>
      </trkpt>
      <trkpt lat="59.4413412" lon="17.9163552">
        <ele>37.2</ele>
        <time>2013-11-02T14:59:45Z</time>
      </trkpt>
      <trkpt lat="59.4413217" lon="17.9164417">
        <ele>37</ele>
        <time>2013-11-02T14:59:48Z</time>
      </trkpt>
      <trkpt lat="59.4412755" lon="17.9165164">
        <ele>36.6</ele>
        <time>2013-11-02T14:59:51Z</time>
      </trkpt>
      <trkpt lat="59.4412079" lon="17.9166474">
        <ele>35.8</ele>
        <time>2013-11-02T14:59:57Z</time>
      </trkpt>
      <trkpt lat="59.4411229" lon="17.9167884">
        <ele>34.8</ele>
        <time>2013-11-02T15:00:04Z</time>
      </trkpt>
      <trkpt lat="59.4411108" lon="17.9168055">
        <ele>34.8</ele>
        <time>2013-11-02T15:00:05Z</time>
      </trkpt>
      <trkpt lat="59.4410925" lon="17.9168317">
        <ele>34.6</ele>
        <time>2013-11-02T15:00:07Z</time>
      </trkpt>
      <trkpt lat="59.4410615" lon="17.9168692">
        <ele>34.4</ele>
        <time>2013-11-02T15:00:09Z</time>
      </trkpt>
      <trkpt lat="59.4409908" lon="17.9169416">
        <ele>33.8</ele>
        <time>2013-11-02T15:00:14Z</time>
      </trkpt>
      <trkpt lat="59.4409214" lon="17.9170645">
        <ele>33.4</ele>
        <time>2013-11-02T15:00:20Z</time>
      </trkpt>
      <trkpt lat="59.440855" lon="17.9172027">
        <ele>32.8</ele>
        <time>2013-11-02T15:00:26Z</time>
      </trkpt>
      <trkpt lat="59.4407987" lon="17.9172573">
        <ele>32.6</ele>
        <time>2013-11-02T15:00:30Z</time>
      </trkpt>
      <trkpt lat="59.4407579" lon="17.9173561">
        <ele>32.4</ele>
        <time>2013-11-02T15:00:34Z</time>
      </trkpt>
      <trkpt lat="59.4406775" lon="17.9174666">
        <ele>32.4</ele>
        <time>2013-11-02T15:00:39Z</time>
      </trkpt>
      <trkpt lat="59.4405968" lon="17.9175738">
        <ele>32</ele>
        <time>2013-11-02T15:00:44Z</time>
      </trkpt>
      <trkpt lat="59.4405823" lon="17.9175851">
        <ele>32</ele>
        <time>2013-11-02T15:00:45Z</time>
      </trkpt>
      <trkpt lat="59.4405568" lon="17.9176364">
        <ele>32</ele>
        <time>2013-11-02T15:00:47Z</time>
      </trkpt>
      <trkpt lat="59.4405201" lon="17.9177054">
        <ele>32.2</ele>
        <time>2013-11-02T15:00:50Z</time>
      </trkpt>
      <trkpt lat="59.440493" lon="17.9178449">
        <ele>32.2</ele>
        <time>2013-11-02T15:00:55Z</time>
      </trkpt>
      <trkpt lat="59.4404407" lon="17.9180007">
        <ele>32.4</ele>
        <time>2013-11-02T15:01:00Z</time>
      </trkpt>
      <trkpt lat="59.440437" lon="17.918033">
        <ele>32.4</ele>
        <time>2013-11-02T15:01:01Z</time>
      </trkpt>
      <trkpt lat="59.4404177" lon="17.9181615">
        <ele>32.2</ele>
        <time>2013-11-02T15:01:05Z</time>
      </trkpt>
      <trkpt lat="59.4404278" lon="17.9182246">
        <ele>32.2</ele>
        <time>2013-11-02T15:01:07Z</time>
      </trkpt>
      <trkpt lat="59.4404499" lon="17.918379">
        <ele>32.2</ele>
        <time>2013-11-02T15:01:11Z</time>
      </trkpt>
      <trkpt lat="59.4404461" lon="17.9184178">
        <ele>32.2</ele>
        <time>2013-11-02T15:01:12Z</time>
      </trkpt>
      <trkpt lat="59.4404633" lon="17.9185396">
        <ele>32.2</ele>
        <time>2013-11-02T15:01:16Z</time>
      </trkpt>
      <trkpt lat="59.4405134" lon="17.918693">
        <ele>32</ele>
        <time>2013-11-02T15:01:22Z</time>
      </trkpt>
      <trkpt lat="59.4405733" lon="17.9188272">
        <ele>32</ele>
        <time>2013-11-02T15:01:27Z</time>
      </trkpt>
      <trkpt lat="59.4405791" lon="17.918841">
        <ele>32</ele>
        <time>2013-11-02T15:01:28Z</time>
      </trkpt>
      <trkpt lat="59.4406064" lon="17.9189235">
        <ele>32</ele>
        <time>2013-11-02T15:01:31Z</time>
      </trkpt>
      <trkpt lat="59.4406128" lon="17.91895">
        <ele>32</ele>
        <time>2013-11-02T15:01:32Z</time>
      </trkpt>
      <trkpt lat="59.440676" lon="17.9191426">
        <ele>31.8</ele>
        <time>2013-11-02T15:01:38Z</time>
      </trkpt>
      <trkpt lat="59.4407021" lon="17.919324">
        <ele>31.8</ele>
        <time>2013-11-02T15:01:44Z</time>
      </trkpt>
      <trkpt lat="59.4407421" lon="17.9195634">
        <ele>31.8</ele>
        <time>2013-11-02T15:01:51Z</time>
      </trkpt>
      <trkpt lat="59.4407578" lon="17.9196885">
        <ele>31.8</ele>
        <time>2013-11-02T15:01:56Z</time>
      </trkpt>
      <trkpt lat="59.4407676" lon="17.9197829">
        <ele>31.8</ele>
        <time>2013-11-02T15:01:59Z</time>
      </trkpt>
      <trkpt lat="59.4407779" lon="17.9198731">
        <ele>31.8</ele>
        <time>2013-11-02T15:02:02Z</time>
      </trkpt>
      <trkpt lat="59.4407828" lon="17.9200568">
        <ele>31.8</ele>
        <time>2013-11-02T15:02:08Z</time>
      </trkpt>
      <trkpt lat="59.4407741" lon="17.9202387">
        <ele>31.6</ele>
        <time>2013-11-02T15:02:14Z</time>
      </trkpt>
      <trkpt lat="59.4407728" lon="17.9202984">
        <ele>31.6</ele>
        <time>2013-11-02T15:02:17Z</time>
      </trkpt>
      <trkpt lat="59.4407643" lon="17.920371">
        <ele>31.6</ele>
        <time>2013-11-02T15:02:20Z</time>
      </trkpt>
      <trkpt lat="59.4407916" lon="17.9205148">
        <ele>31.8</ele>
        <time>2013-11-02T15:02:25Z</time>
      </trkpt>
      <trkpt lat="59.4408044" lon="17.9205364">
        <ele>31.8</ele>
        <time>2013-11-02T15:02:26Z</time>
      </trkpt>
      <trkpt lat="59.4408517" lon="17.920637">
        <ele>32.6</ele>
        <time>2013-11-02T15:02:30Z</time>
      </trkpt>
      <trkpt lat="59.4408588" lon="17.9206727">
        <ele>32.6</ele>
        <time>2013-11-02T15:02:32Z</time>
      </trkpt>
      <trkpt lat="59.440889" lon="17.9207526">
        <ele>32.8</ele>
        <time>2013-11-02T15:02:35Z</time>
      </trkpt>
      <trkpt lat="59.4409108" lon="17.9208096">
        <ele>33.2</ele>
        <time>2013-11-02T15:02:38Z</time>
      </trkpt>
      <trkpt lat="59.4409265" lon="17.9208567">
        <ele>33.4</ele>
        <time>2013-11-02T15:02:40Z</time>
      </trkpt>
      <trkpt lat="59.4409539" lon="17.9209012">
        <ele>33.4</ele>
        <time>2013-11-02T15:02:42Z</time>
      </trkpt>
      <trkpt lat="59.4410377" lon="17.921042">
        <ele>34.4</ele>
        <time>2013-11-02T15:02:47Z</time>
      </trkpt>
      <trkpt lat="59.4410832" lon="17.9212035">
        <ele>35.4</ele>
        <time>2013-11-02T15:02:52Z</time>
      </trkpt>
      <trkpt lat="59.4411055" lon="17.9214271">
        <ele>37</ele>
        <time>2013-11-02T15:02:58Z</time>
      </trkpt>
      <trkpt lat="59.4411266" lon="17.9214917">
        <ele>37</ele>
        <time>2013-11-02T15:03:01Z</time>
      </trkpt>
      <trkpt lat="59.4411391" lon="17.9215251">
        <ele>37.2</ele>
        <time>2013-11-02T15:03:03Z</time>
      </trkpt>
      <trkpt lat="59.4411859" lon="17.9215556">
        <ele>37</ele>
        <time>2013-11-02T15:03:08Z</time>
      </trkpt>
      <trkpt lat="59.4412666" lon="17.9215487">
        <ele>37.2</ele>
        <time>2013-11-02T15:03:13Z</time>
      </trkpt>
      <trkpt lat="59.4413346" lon="17.9215607">
        <ele>37.2</ele>
        <time>2013-11-02T15:03:19Z</time>
      </trkpt>
      <trkpt lat="59.4413928" lon="17.9215293">
        <ele>37.2</ele>
        <time>2013-11-02T15:03:24Z</time>
      </trkpt>
      <trkpt lat="59.441409" lon="17.9215339">
        <ele>37.2</ele>
        <time>2013-11-02T15:03:25Z</time>
      </trkpt>
      <trkpt lat="59.4414784" lon="17.9215113">
        <ele>37.2</ele>
        <time>2013-11-02T15:03:30Z</time>
      </trkpt>
      <trkpt lat="59.4416276" lon="17.9214767">
        <ele>38.2</ele>
        <time>2013-11-02T15:03:37Z</time>
      </trkpt>
      <trkpt lat="59.4417194" lon="17.9214317">
        <ele>38.8</ele>
        <time>2013-11-02T15:03:42Z</time>
      </trkpt>
      <trkpt lat="59.4418162" lon="17.9213978">
        <ele>38.8</ele>
        <time>2013-11-02T15:03:48Z</time>
      </trkpt>
      <trkpt lat="59.4418412" lon="17.9213791">
        <ele>38.8</ele>
        <time>2013-11-02T15:03:50Z</time>
      </trkpt>
      <trkpt lat="59.4418952" lon="17.9213868">
        <ele>38.6</ele>
        <time>2013-11-02T15:03:53Z</time>
      </trkpt>
      <trkpt lat="59.4419254" lon="17.9213882">
        <ele>38.8</ele>
        <time>2013-11-02T15:03:55Z</time>
      </trkpt>
      <trkpt lat="59.4419634" lon="17.921369">
        <ele>38.6</ele>
        <time>2013-11-02T15:03:58Z</time>
      </trkpt>
      <trkpt lat="59.4419836" lon="17.9213659">
        <ele>38.6</ele>
        <time>2013-11-02T15:03:59Z</time>
      </trkpt>
      <trkpt lat="59.4420046" lon="17.9213586">
        <ele>38.6</ele>
        <time>2013-11-02T15:04:01Z</time>
      </trkpt>
      <trkpt lat="59.4420131" lon="17.9213378">
        <ele>38.6</ele>
        <time>2013-11-02T15:04:02Z</time>
      </trkpt>
      <trkpt lat="59.4420709" lon="17.921243">
        <ele>38.2</ele>
        <time>2013-11-02T15:04:06Z</time>
      </trkpt>
      <trkpt lat="59.4421577" lon="17.9210284">
        <ele>38.2</ele>
        <time>2013-11-02T15:04:13Z</time>
      </trkpt>
      <trkpt lat="59.4421614" lon="17.9208987">
        <ele>38</ele>
        <time>2013-11-02T15:04:17Z</time>
      </trkpt>
      <trkpt lat="59.442165" lon="17.9206833">
        <ele>37.6</ele>
        <time>2013-11-02T15:04:23Z</time>
      </trkpt>
      <trkpt lat="59.4421698" lon="17.9206469">
        <ele>37.6</ele>
        <time>2013-11-02T15:04:24Z</time>
      </trkpt>
      <trkpt lat="59.4422139" lon="17.9205396">
        <ele>37.2</ele>
        <time>2013-11-02T15:04:28Z</time>
      </trkpt>
      <trkpt lat="59.4422802" lon="17.9204782">
        <ele>37.2</ele>
        <time>2013-11-02T15:04:33Z</time>
      </trkpt>
      <trkpt lat="59.4423541" lon="17.920481">
        <ele>37</ele>
        <time>2013-11-02T15:04:38Z</time>
      </trkpt>
      <trkpt lat="59.4424069" lon="17.9204672">
        <ele>37</ele>
        <time>2013-11-02T15:04:41Z</time>
      </trkpt>
      <trkpt lat="59.4425144" lon="17.9204184">
        <ele>37.8</ele>
        <time>2013-11-02T15:04:47Z</time>
      </trkpt>
      <trkpt lat="59.4426419" lon="17.9203947">
        <ele>38.6</ele>
        <time>2013-11-02T15:04:52Z</time>
      </trkpt>
      <trkpt lat="59.4426947" lon="17.9203778">
        <ele>39</ele>
        <time>2013-11-02T15:04:56Z</time>
      </trkpt>
      <trkpt lat="59.4427919" lon="17.9203279">
        <ele>39.6</ele>
        <time>2013-11-02T15:05:01Z</time>
      </trkpt>
      <trkpt lat="59.4428401" lon="17.9203399">
        <ele>39.4</ele>
        <time>2013-11-02T15:05:05Z</time>
      </trkpt>
      <trkpt lat="59.442868" lon="17.9203444">
        <ele>39.4</ele>
        <time>2013-11-02T15:05:07Z</time>
      </trkpt>
      <trkpt lat="59.4428953" lon="17.9203539">
        <ele>39.4</ele>
        <time>2013-11-02T15:05:09Z</time>
      </trkpt>
      <trkpt lat="59.4429115" lon="17.920348">
        <ele>39.4</ele>
        <time>2013-11-02T15:05:10Z</time>
      </trkpt>
      <trkpt lat="59.4429601" lon="17.9203489">
        <ele>39.2</ele>
        <time>2013-11-02T15:05:13Z</time>
      </trkpt>
      <trkpt lat="59.4429781" lon="17.9203499">
        <ele>39</ele>
        <time>2013-11-02T15:05:14Z</time>
      </trkpt>
      <trkpt lat="59.4430563" lon="17.9203277">
        <ele>39</ele>
        <time>2013-11-02T15:05:19Z</time>
      </trkpt>
      <trkpt lat="59.4430652" lon="17.9203144">
        <ele>39</ele>
        <time>2013-11-02T15:05:20Z</time>
      </trkpt>
      <trkpt lat="59.4431003" lon="17.9202693">
        <ele>38.8</ele>
        <time>2013-11-02T15:05:23Z</time>
      </trkpt>
      <trkpt lat="59.4431112" lon="17.9202439">
        <ele>38.8</ele>
        <time>2013-11-02T15:05:24Z</time>
      </trkpt>
      <trkpt lat="59.4431758" lon="17.9201921">
        <ele>39.2</ele>
        <time>2013-11-02T15:05:27Z</time>
      </trkpt>
      <trkpt lat="59.4432201" lon="17.9201586">
        <ele>39.8</ele>
        <time>2013-11-02T15:05:30Z</time>
      </trkpt>
      <trkpt lat="59.4432845" lon="17.9200524">
        <ele>41.2</ele>
        <time>2013-11-02T15:05:36Z</time>
      </trkpt>
      <trkpt lat="59.4433377" lon="17.9199204">
        <ele>43.4</ele>
        <time>2013-11-02T15:05:42Z</time>
      </trkpt>
      <trkpt lat="59.4433672" lon="17.9198839">
        <ele>44.4</ele>
        <time>2013-11-02T15:05:44Z</time>
      </trkpt>
      <trkpt lat="59.4433961" lon="17.9197995">
        <ele>45.2</ele>
        <time>2013-11-02T15:05:47Z</time>
      </trkpt>
      <trkpt lat="59.4433994" lon="17.9197682">
        <ele>45.8</ele>
        <time>2013-11-02T15:05:48Z</time>
      </trkpt>
      <trkpt lat="59.4434219" lon="17.9196891">
        <ele>47.2</ele>
        <time>2013-11-02T15:05:51Z</time>
      </trkpt>
      <trkpt lat="59.4434462" lon="17.9196084">
        <ele>48.2</ele>
        <time>2013-11-02T15:05:53Z</time>
      </trkpt>
      <trkpt lat="59.4434896" lon="17.9194187">
        <ele>48.2</ele>
        <time>2013-11-02T15:05:58Z</time>
      </trkpt>
      <trkpt lat="59.4435107" lon="17.9193389">
        <ele>48</ele>
        <time>2013-11-02T15:06:00Z</time>
      </trkpt>
      <trkpt lat="59.4435419" lon="17.9192505">
        <ele>48</ele>
        <time>2013-11-02T15:06:03Z</time>
      </trkpt>
      <trkpt lat="59.4435371" lon="17.9191327">
        <ele>47.8</ele>
        <time>2013-11-02T15:06:07Z</time>
      </trkpt>
      <trkpt lat="59.4435172" lon="17.9190763">
        <ele>47.6</ele>
        <time>2013-11-02T15:06:09Z</time>
      </trkpt>
      <trkpt lat="59.4434632" lon="17.9189426">
        <ele>47.2</ele>
        <time>2013-11-02T15:06:14Z</time>
      </trkpt>
      <trkpt lat="59.4434145" lon="17.9187493">
        <ele>46.6</ele>
        <time>2013-11-02T15:06:20Z</time>
      </trkpt>
      <trkpt lat="59.4433901" lon="17.9185528">
        <ele>46.2</ele>
        <time>2013-11-02T15:06:26Z</time>
      </trkpt>
      <trkpt lat="59.4433923" lon="17.9185301">
        <ele>46.2</ele>
        <time>2013-11-02T15:06:27Z</time>
      </trkpt>
      <trkpt lat="59.4433789" lon="17.9183837">
        <ele>46</ele>
        <time>2013-11-02T15:06:31Z</time>
      </trkpt>
      <trkpt lat="59.443376" lon="17.9183517">
        <ele>46</ele>
        <time>2013-11-02T15:06:32Z</time>
      </trkpt>
      <trkpt lat="59.443367" lon="17.918226">
        <ele>45.8</ele>
        <time>2013-11-02T15:06:36Z</time>
      </trkpt>
      <trkpt lat="59.4433733" lon="17.9181833">
        <ele>45.8</ele>
        <time>2013-11-02T15:06:37Z</time>
      </trkpt>
      <trkpt lat="59.4434015" lon="17.9180487">
        <ele>45.2</ele>
        <time>2013-11-02T15:06:41Z</time>
      </trkpt>
      <trkpt lat="59.4434087" lon="17.9180141">
        <ele>45.2</ele>
        <time>2013-11-02T15:06:42Z</time>
      </trkpt>
      <trkpt lat="59.4434222" lon="17.917801">
        <ele>44.6</ele>
        <time>2013-11-02T15:06:47Z</time>
      </trkpt>
      <trkpt lat="59.4434289" lon="17.9177607">
        <ele>44.6</ele>
        <time>2013-11-02T15:06:48Z</time>
      </trkpt>
      <trkpt lat="59.4434475" lon="17.9176572">
        <ele>44.2</ele>
        <time>2013-11-02T15:06:51Z</time>
      </trkpt>
      <trkpt lat="59.4434467" lon="17.9176347">
        <ele>44.2</ele>
        <time>2013-11-02T15:06:52Z</time>
      </trkpt>
      <trkpt lat="59.4434596" lon="17.9175725">
        <ele>43.8</ele>
        <time>2013-11-02T15:06:54Z</time>
      </trkpt>
      <trkpt lat="59.4434909" lon="17.9174651">
        <ele>43.4</ele>
        <time>2013-11-02T15:06:57Z</time>
      </trkpt>
      <trkpt lat="59.4435631" lon="17.9173081">
        <ele>43</ele>
        <time>2013-11-02T15:07:02Z</time>
      </trkpt>
      <trkpt lat="59.4436064" lon="17.9172194">
        <ele>42.6</ele>
        <time>2013-11-02T15:07:05Z</time>
      </trkpt>
      <trkpt lat="59.4436246" lon="17.917216">
        <ele>42.6</ele>
        <time>2013-11-02T15:07:06Z</time>
      </trkpt>
      <trkpt lat="59.4436619" lon="17.9172034">
        <ele>42.4</ele>
        <time>2013-11-02T15:07:08Z</time>
      </trkpt>
      <trkpt lat="59.4437674" lon="17.9170894">
        <ele>42.6</ele>
        <time>2013-11-02T15:07:14Z</time>
      </trkpt>
      <trkpt lat="59.4437875" lon="17.9170583">
        <ele>42.4</ele>
        <time>2013-11-02T15:07:16Z</time>
      </trkpt>
      <trkpt lat="59.4438272" lon="17.9170136">
        <ele>42.6</ele>
        <time>2013-11-02T15:07:19Z</time>
      </trkpt>
      <trkpt lat="59.443922" lon="17.9169786">
        <ele>42.2</ele>
        <time>2013-11-02T15:07:25Z</time>
      </trkpt>
      <trkpt lat="59.444006" lon="17.9170275">
        <ele>42.2</ele>
        <time>2013-11-02T15:07:29Z</time>
      </trkpt>
      <trkpt lat="59.4440198" lon="17.9170477">
        <ele>42.2</ele>
        <time>2013-11-02T15:07:30Z</time>
      </trkpt>
      <trkpt lat="59.4440659" lon="17.9171596">
        <ele>42</ele>
        <time>2013-11-02T15:07:34Z</time>
      </trkpt>
      <trkpt lat="59.4441376" lon="17.9172566">
        <ele>41.8</ele>
        <time>2013-11-02T15:07:39Z</time>
      </trkpt>
      <trkpt lat="59.4442012" lon="17.9172442">
        <ele>41.8</ele>
        <time>2013-11-02T15:07:44Z</time>
      </trkpt>
      <trkpt lat="59.4442792" lon="17.9172534">
        <ele>42</ele>
        <time>2013-11-02T15:07:49Z</time>
      </trkpt>
      <trkpt lat="59.4443731" lon="17.917288">
        <ele>42.2</ele>
        <time>2013-11-02T15:07:54Z</time>
      </trkpt>
      <trkpt lat="59.4444697" lon="17.9173468">
        <ele>42.2</ele>
        <time>2013-11-02T15:08:00Z</time>
      </trkpt>
      <trkpt lat="59.4445757" lon="17.9174237">
        <ele>42.2</ele>
        <time>2013-11-02T15:08:06Z</time>
      </trkpt>
      <trkpt lat="59.4446922" lon="17.9174798">
        <ele>42.2</ele>
        <time>2013-11-02T15:08:12Z</time>
      </trkpt>
      <trkpt lat="59.4447048" lon="17.9174749">
        <ele>42.2</ele>
        <time>2013-11-02T15:08:13Z</time>
      </trkpt>
      <trkpt lat="59.4447754" lon="17.9174365">
        <ele>42.2</ele>
        <time>2013-11-02T15:08:17Z</time>
      </trkpt>
      <trkpt lat="59.4448704" lon="17.9173684">
        <ele>42.4</ele>
        <time>2013-11-02T15:08:22Z</time>
      </trkpt>
      <trkpt lat="59.4449808" lon="17.9173731">
        <ele>43.2</ele>
        <time>2013-11-02T15:08:28Z</time>
      </trkpt>
      <trkpt lat="59.4450693" lon="17.9174123">
        <ele>43.6</ele>
        <time>2013-11-02T15:08:34Z</time>
      </trkpt>
      <trkpt lat="59.4451398" lon="17.9174866">
        <ele>43.4</ele>
        <time>2013-11-02T15:08:39Z</time>
      </trkpt>
      <trkpt lat="59.445175" lon="17.9175617">
        <ele>43.4</ele>
        <time>2013-11-02T15:08:41Z</time>
      </trkpt>
      <trkpt lat="59.4452146" lon="17.9176741">
        <ele>43.6</ele>
        <time>2013-11-02T15:08:44Z</time>
      </trkpt>
      <trkpt lat="59.4452396" lon="17.9177309">
        <ele>43.8</ele>
        <time>2013-11-02T15:08:46Z</time>
      </trkpt>
      <trkpt lat="59.4452853" lon="17.9178536">
        <ele>43.8</ele>
        <time>2013-11-02T15:08:50Z</time>
      </trkpt>
      <trkpt lat="59.4453334" lon="17.9179017">
        <ele>44</ele>
        <time>2013-11-02T15:08:52Z</time>
      </trkpt>
      <trkpt lat="59.4454282" lon="17.9180185">
        <ele>44.8</ele>
        <time>2013-11-02T15:08:57Z</time>
      </trkpt>
      <trkpt lat="59.4454699" lon="17.9181158">
        <ele>44.6</ele>
        <time>2013-11-02T15:09:02Z</time>
      </trkpt>
      <trkpt lat="59.4454822" lon="17.9181197">
        <ele>44.8</ele>
        <time>2013-11-02T15:09:03Z</time>
      </trkpt>
      <trkpt lat="59.4455732" lon="17.9182004">
        <ele>45.4</ele>
        <time>2013-11-02T15:09:09Z</time>
      </trkpt>
      <trkpt lat="59.4455993" lon="17.9182792">
        <ele>45.6</ele>
        <time>2013-11-02T15:09:11Z</time>
      </trkpt>
      <trkpt lat="59.4456588" lon="17.9183796">
        <ele>45.8</ele>
        <time>2013-11-02T15:09:14Z</time>
      </trkpt>
      <trkpt lat="59.4456852" lon="17.9185957">
        <ele>45.6</ele>
        <time>2013-11-02T15:09:21Z</time>
      </trkpt>
      <trkpt lat="59.4457013" lon="17.9187578">
        <ele>45.4</ele>
        <time>2013-11-02T15:09:26Z</time>
      </trkpt>
      <trkpt lat="59.4457116" lon="17.9188344">
        <ele>44.8</ele>
        <time>2013-11-02T15:09:30Z</time>
      </trkpt>
      <trkpt lat="59.4457461" lon="17.9188323">
        <ele>44.4</ele>
        <time>2013-11-02T15:09:33Z</time>
      </trkpt>
      <trkpt lat="59.4458443" lon="17.9187636">
        <ele>43.6</ele>
        <time>2013-11-02T15:09:40Z</time>
      </trkpt>
      <trkpt lat="59.4458743" lon="17.9187497">
        <ele>43.4</ele>
        <time>2013-11-02T15:09:42Z</time>
      </trkpt>
      <trkpt lat="59.4459432" lon="17.9187034">
        <ele>42.8</ele>
        <time>2013-11-02T15:09:47Z</time>
      </trkpt>
      <trkpt lat="59.4460697" lon="17.9186249">
        <ele>42.2</ele>
        <time>2013-11-02T15:09:54Z</time>
      </trkpt>
      <trkpt lat="59.446161" lon="17.9185503">
        <ele>42.2</ele>
        <time>2013-11-02T15:09:59Z</time>
      </trkpt>
      <trkpt lat="59.4462217" lon="17.9184394">
        <ele>42</ele>
        <time>2013-11-02T15:10:04Z</time>
      </trkpt>
      <trkpt lat="59.4462631" lon="17.9183791">
        <ele>41.8</ele>
        <time>2013-11-02T15:10:09Z</time>
      </trkpt>
      <trkpt lat="59.446328" lon="17.9183344">
        <ele>41.4</ele>
        <time>2013-11-02T15:10:14Z</time>
      </trkpt>
      <trkpt lat="59.4463482" lon="17.9183525">
        <ele>41.2</ele>
        <time>2013-11-02T15:10:15Z</time>
      </trkpt>
      <trkpt lat="59.4464547" lon="17.9183727">
        <ele>41.2</ele>
        <time>2013-11-02T15:10:19Z</time>
      </trkpt>
      <trkpt lat="59.4465416" lon="17.9183087">
        <ele>40.6</ele>
        <time>2013-11-02T15:10:25Z</time>
      </trkpt>
      <trkpt lat="59.4465813" lon="17.9182786">
        <ele>40.4</ele>
        <time>2013-11-02T15:10:28Z</time>
      </trkpt>
      <trkpt lat="59.4466137" lon="17.9182254">
        <ele>40.2</ele>
        <time>2013-11-02T15:10:31Z</time>
      </trkpt>
      <trkpt lat="59.4466244" lon="17.9181986">
        <ele>40.2</ele>
        <time>2013-11-02T15:10:32Z</time>
      </trkpt>
      <trkpt lat="59.4466982" lon="17.9180725">
        <ele>39.6</ele>
        <time>2013-11-02T15:10:38Z</time>
      </trkpt>
      <trkpt lat="59.4467552" lon="17.9180083">
        <ele>39.2</ele>
        <time>2013-11-02T15:10:43Z</time>
      </trkpt>
      <trkpt lat="59.446784" lon="17.9179845">
        <ele>38.8</ele>
        <time>2013-11-02T15:10:45Z</time>
      </trkpt>
      <trkpt lat="59.4468462" lon="17.9178715">
        <ele>38.6</ele>
        <time>2013-11-02T15:10:50Z</time>
      </trkpt>
      <trkpt lat="59.446853" lon="17.9178466">
        <ele>38.6</ele>
        <time>2013-11-02T15:10:51Z</time>
      </trkpt>
      <trkpt lat="59.4468748" lon="17.9178324">
        <ele>38.4</ele>
        <time>2013-11-02T15:10:52Z</time>
      </trkpt>
      <trkpt lat="59.4469377" lon="17.9177972">
        <ele>38.4</ele>
        <time>2013-11-02T15:10:56Z</time>
      </trkpt>
      <trkpt lat="59.4469987" lon="17.9177624">
        <ele>38.4</ele>
        <time>2013-11-02T15:11:00Z</time>
      </trkpt>
      <trkpt lat="59.4470307" lon="17.9177677">
        <ele>38.4</ele>
        <time>2013-11-02T15:11:01Z</time>
      </trkpt>
      <trkpt lat="59.4470534" lon="17.9177651">
        <ele>38.4</ele>
        <time>2013-11-02T15:11:02Z</time>
      </trkpt>
      <trkpt lat="59.4471759" lon="17.9177419">
        <ele>39</ele>
        <time>2013-11-02T15:11:07Z</time>
      </trkpt>
      <trkpt lat="59.4472425" lon="17.9177623">
        <ele>39.8</ele>
        <time>2013-11-02T15:11:10Z</time>
      </trkpt>
      <trkpt lat="59.4472799" lon="17.9177683">
        <ele>40.2</ele>
        <time>2013-11-02T15:11:12Z</time>
      </trkpt>
      <trkpt lat="59.4473194" lon="17.917746">
        <ele>40.8</ele>
        <time>2013-11-02T15:11:16Z</time>
      </trkpt>
      <trkpt lat="59.4473302" lon="17.9177402">
        <ele>41</ele>
        <time>2013-11-02T15:11:17Z</time>
      </trkpt>
      <trkpt lat="59.4473784" lon="17.9176543">
        <ele>41.2</ele>
        <time>2013-11-02T15:11:23Z</time>
      </trkpt>
      <trkpt lat="59.447418" lon="17.9176132">
        <ele>41.6</ele>
        <time>2013-11-02T15:11:26Z</time>
      </trkpt>
      <trkpt lat="59.4474532" lon="17.9175559">
        <ele>41.6</ele>
        <time>2013-11-02T15:11:28Z</time>
      </trkpt>
      <trkpt lat="59.447584" lon="17.9174851">
        <ele>41.6</ele>
        <time>2013-11-02T15:11:34Z</time>
      </trkpt>
      <trkpt lat="59.4476779" lon="17.9174477">
        <ele>41.4</ele>
        <time>2013-11-02T15:11:40Z</time>
      </trkpt>
      <trkpt lat="59.4477554" lon="17.9175342">
        <ele>41.2</ele>
        <time>2013-11-02T15:11:45Z</time>
      </trkpt>
      <trkpt lat="59.4478199" lon="17.9175797">
        <ele>41</ele>
        <time>2013-11-02T15:11:48Z</time>
      </trkpt>
      <trkpt lat="59.447858" lon="17.9175979">
        <ele>40.8</ele>
        <time>2013-11-02T15:11:50Z</time>
      </trkpt>
      <trkpt lat="59.4479818" lon="17.9175602">
        <ele>39.8</ele>
        <time>2013-11-02T15:11:57Z</time>
      </trkpt>
      <trkpt lat="59.4480543" lon="17.9175595">
        <ele>39</ele>
        <time>2013-11-02T15:12:02Z</time>
      </trkpt>
      <trkpt lat="59.4481351" lon="17.9175591">
        <ele>38.8</ele>
        <time>2013-11-02T15:12:05Z</time>
      </trkpt>
      <trkpt lat="59.4481659" lon="17.9175851">
        <ele>38.6</ele>
        <time>2013-11-02T15:12:07Z</time>
      </trkpt>
      <trkpt lat="59.4482458" lon="17.9175535">
        <ele>37.8</ele>
        <time>2013-11-02T15:12:12Z</time>
      </trkpt>
      <trkpt lat="59.448337" lon="17.9175228">
        <ele>37</ele>
        <time>2013-11-02T15:12:18Z</time>
      </trkpt>
      <trkpt lat="59.4483605" lon="17.9175176">
        <ele>36.8</ele>
        <time>2013-11-02T15:12:19Z</time>
      </trkpt>
      <trkpt lat="59.4484174" lon="17.917499">
        <ele>36.4</ele>
        <time>2013-11-02T15:12:22Z</time>
      </trkpt>
      <trkpt lat="59.4485199" lon="17.917484">
        <ele>35.6</ele>
        <time>2013-11-02T15:12:28Z</time>
      </trkpt>
      <trkpt lat="59.4485812" lon="17.9174625">
        <ele>34.8</ele>
        <time>2013-11-02T15:12:32Z</time>
      </trkpt>
      <trkpt lat="59.4486225" lon="17.9174527">
        <ele>34.4</ele>
        <time>2013-11-02T15:12:34Z</time>
      </trkpt>
      <trkpt lat="59.4486761" lon="17.9174373">
        <ele>33.8</ele>
        <time>2013-11-02T15:12:37Z</time>
      </trkpt>
      <trkpt lat="59.4487625" lon="17.9173519">
        <ele>32.8</ele>
        <time>2013-11-02T15:12:43Z</time>
      </trkpt>
      <trkpt lat="59.448849" lon="17.9171668">
        <ele>31.6</ele>
        <time>2013-11-02T15:12:50Z</time>
      </trkpt>
      <trkpt lat="59.4488938" lon="17.9170724">
        <ele>30.8</ele>
        <time>2013-11-02T15:12:54Z</time>
      </trkpt>
      <trkpt lat="59.4489378" lon="17.9170153">
        <ele>30.4</ele>
        <time>2013-11-02T15:12:57Z</time>
      </trkpt>
      <trkpt lat="59.4489502" lon="17.9169935">
        <ele>30.2</ele>
        <time>2013-11-02T15:12:58Z</time>
      </trkpt>
      <trkpt lat="59.4490258" lon="17.9168178">
        <ele>29</ele>
        <time>2013-11-02T15:13:05Z</time>
      </trkpt>
      <trkpt lat="59.4490994" lon="17.9166839">
        <ele>28</ele>
        <time>2013-11-02T15:13:11Z</time>
      </trkpt>
      <trkpt lat="59.449155" lon="17.916549">
        <ele>26.8</ele>
        <time>2013-11-02T15:13:17Z</time>
      </trkpt>
      <trkpt lat="59.4491565" lon="17.9163411">
        <ele>25.8</ele>
        <time>2013-11-02T15:13:22Z</time>
      </trkpt>
      <trkpt lat="59.4491572" lon="17.9162564">
        <ele>25.4</ele>
        <time>2013-11-02T15:13:24Z</time>
      </trkpt>
      <trkpt lat="59.4491601" lon="17.9161376">
        <ele>24.8</ele>
        <time>2013-11-02T15:13:27Z</time>
      </trkpt>
      <trkpt lat="59.4491508" lon="17.9159653">
        <ele>23.8</ele>
        <time>2013-11-02T15:13:32Z</time>
      </trkpt>
      <trkpt lat="59.4491317" lon="17.9157666">
        <ele>22.8</ele>
        <time>2013-11-02T15:13:38Z</time>
      </trkpt>
      <trkpt lat="59.4491297" lon="17.9157083">
        <ele>22.4</ele>
        <time>2013-11-02T15:13:40Z</time>
      </trkpt>
      <trkpt lat="59.4491088" lon="17.9155839">
        <ele>21.8</ele>
        <time>2013-11-02T15:13:44Z</time>
      </trkpt>
      <trkpt lat="59.4491191" lon="17.9154124">
        <ele>21</ele>
        <time>2013-11-02T15:13:50Z</time>
      </trkpt>
      <trkpt lat="59.449079" lon="17.9152719">
        <ele>20.2</ele>
        <time>2013-11-02T15:13:55Z</time>
      </trkpt>
      <trkpt lat="59.4490291" lon="17.9152146">
        <ele>19.8</ele>
        <time>2013-11-02T15:14:00Z</time>
      </trkpt>
      <trkpt lat="59.449034" lon="17.9152311">
        <ele>18.8</ele>
        <time>2013-11-02T15:14:24Z</time>
      </trkpt>
      <trkpt lat="59.4491097" lon="17.9153012">
        <ele>18.6</ele>
        <time>2013-11-02T15:14:30Z</time>
      </trkpt>
      <trkpt lat="59.4491633" lon="17.9153416">
        <ele>18.4</ele>
        <time>2013-11-02T15:14:34Z</time>
      </trkpt>
      <trkpt lat="59.4491885" lon="17.915371">
        <ele>18.2</ele>
        <time>2013-11-02T15:14:36Z</time>
      </trkpt>
      <trkpt lat="59.4492407" lon="17.9154388">
        <ele>18</ele>
        <time>2013-11-02T15:14:41Z</time>
      </trkpt>
      <trkpt lat="59.4493412" lon="17.9155569">
        <ele>17.6</ele>
        <time>2013-11-02T15:14:49Z</time>
      </trkpt>
      <trkpt lat="59.449432" lon="17.9156311">
        <ele>17.2</ele>
        <time>2013-11-02T15:14:55Z</time>
      </trkpt>
      <trkpt lat="59.4494755" lon="17.9156744">
        <ele>16.8</ele>
        <time>2013-11-02T15:15:01Z</time>
      </trkpt>
      <trkpt lat="59.4494366" lon="17.9156396">
        <ele>16.6</ele>
        <time>2013-11-02T15:15:05Z</time>
      </trkpt>
      <trkpt lat="59.4493473" lon="17.9155594">
        <ele>16.2</ele>
        <time>2013-11-02T15:15:11Z</time>
      </trkpt>
      <trkpt lat="59.4492783" lon="17.9155062">
        <ele>15.8</ele>
        <time>2013-11-02T15:15:16Z</time>
      </trkpt>
      <trkpt lat="59.4491829" lon="17.9153873">
        <ele>15.2</ele>
        <time>2013-11-02T15:15:23Z</time>
      </trkpt>
      <trkpt lat="59.4491711" lon="17.9153592">
        <ele>15</ele>
        <time>2013-11-02T15:15:24Z</time>
      </trkpt>
      <trkpt lat="59.4491196" lon="17.9152738">
        <ele>14.8</ele>
        <time>2013-11-02T15:15:28Z</time>
      </trkpt>
      <trkpt lat="59.4491092" lon="17.9152548">
        <ele>14.6</ele>
        <time>2013-11-02T15:15:29Z</time>
      </trkpt>
      <trkpt lat="59.4490419" lon="17.9151358">
        <ele>14.2</ele>
        <time>2013-11-02T15:15:35Z</time>
      </trkpt>
      <trkpt lat="59.4489751" lon="17.9150057">
        <ele>13.6</ele>
        <time>2013-11-02T15:15:41Z</time>
      </trkpt>
      <trkpt lat="59.448892" lon="17.9149012">
        <ele>13.4</ele>
        <time>2013-11-02T15:15:47Z</time>
      </trkpt>
      <trkpt lat="59.4488163" lon="17.9147594">
        <ele>13</ele>
        <time>2013-11-02T15:15:53Z</time>
      </trkpt>
      <trkpt lat="59.4487573" lon="17.9147016">
        <ele>13</ele>
        <time>2013-11-02T15:15:58Z</time>
      </trkpt>
      <trkpt lat="59.4486976" lon="17.9145735">
        <ele>12.8</ele>
        <time>2013-11-02T15:16:02Z</time>
      </trkpt>
      <trkpt lat="59.4486206" lon="17.9144701">
        <ele>12.6</ele>
        <time>2013-11-02T15:16:07Z</time>
      </trkpt>
      <trkpt lat="59.4485745" lon="17.9143551">
        <ele>12.4</ele>
        <time>2013-11-02T15:16:12Z</time>
      </trkpt>
      <trkpt lat="59.4485607" lon="17.9143326">
        <ele>12.4</ele>
        <time>2013-11-02T15:16:13Z</time>
      </trkpt>
      <trkpt lat="59.4484913" lon="17.9142484">
        <ele>12</ele>
        <time>2013-11-02T15:16:18Z</time>
      </trkpt>
      <trkpt lat="59.4484813" lon="17.9142286">
        <ele>12</ele>
        <time>2013-11-02T15:16:19Z</time>
      </trkpt>
      <trkpt lat="59.4484582" lon="17.9141947">
        <ele>11.8</ele>
        <time>2013-11-02T15:16:21Z</time>
      </trkpt>
      <trkpt lat="59.4484174" lon="17.9141578">
        <ele>11.6</ele>
        <time>2013-11-02T15:16:24Z</time>
      </trkpt>
      <trkpt lat="59.4484082" lon="17.9141343">
        <ele>11.6</ele>
        <time>2013-11-02T15:16:25Z</time>
      </trkpt>
      <trkpt lat="59.448354" lon="17.9139957">
        <ele>11.2</ele>
        <time>2013-11-02T15:16:30Z</time>
      </trkpt>
      <trkpt lat="59.4483643" lon="17.9139185">
        <ele>10.8</ele>
        <time>2013-11-02T15:16:34Z</time>
      </trkpt>
      <trkpt lat="59.4483845" lon="17.9139083">
        <ele>10.8</ele>
        <time>2013-11-02T15:16:35Z</time>
      </trkpt>
      <trkpt lat="59.448471" lon="17.9138501">
        <ele>10.4</ele>
        <time>2013-11-02T15:16:41Z</time>
      </trkpt>
      <trkpt lat="59.4485673" lon="17.9137655">
        <ele>9.8</ele>
        <time>2013-11-02T15:16:48Z</time>
      </trkpt>
      <trkpt lat="59.4486" lon="17.9137681">
        <ele>9.6</ele>
        <time>2013-11-02T15:16:51Z</time>
      </trkpt>
      <trkpt lat="59.4486339" lon="17.913761">
        <ele>9.4</ele>
        <time>2013-11-02T15:16:53Z</time>
      </trkpt>
      <trkpt lat="59.4487052" lon="17.9137755">
        <ele>8.8</ele>
        <time>2013-11-02T15:16:58Z</time>
      </trkpt>
      <trkpt lat="59.4488193" lon="17.913804">
        <ele>8.4</ele>
        <time>2013-11-02T15:17:04Z</time>
      </trkpt>
      <trkpt lat="59.4488865" lon="17.9137886">
        <ele>8</ele>
        <time>2013-11-02T15:17:08Z</time>
      </trkpt>
      <trkpt lat="59.4489569" lon="17.9137236">
        <ele>7.8</ele>
        <time>2013-11-02T15:17:12Z</time>
      </trkpt>
      <trkpt lat="59.4489914" lon="17.9136952">
        <ele>7.8</ele>
        <time>2013-11-02T15:17:14Z</time>
      </trkpt>
      <trkpt lat="59.4491108" lon="17.9136198">
        <ele>7.4</ele>
        <time>2013-11-02T15:17:21Z</time>
      </trkpt>
      <trkpt lat="59.4491946" lon="17.9135238">
        <ele>7.2</ele>
        <time>2013-11-02T15:17:27Z</time>
      </trkpt>
      <trkpt lat="59.449278" lon="17.9134514">
        <ele>6.8</ele>
        <time>2013-11-02T15:17:32Z</time>
      </trkpt>
      <trkpt lat="59.4494037" lon="17.9133228">
        <ele>6.6</ele>
        <time>2013-11-02T15:17:40Z</time>
      </trkpt>
      <trkpt lat="59.4495445" lon="17.9131909">
        <ele>6.4</ele>
        <time>2013-11-02T15:17:49Z</time>
      </trkpt>
      <trkpt lat="59.4496868" lon="17.9130589">
        <ele>6.4</ele>
        <time>2013-11-02T15:17:58Z</time>
      </trkpt>
      <trkpt lat="59.449792" lon="17.9129348">
        <ele>6.4</ele>
        <time>2013-11-02T15:18:05Z</time>
      </trkpt>
      <trkpt lat="59.4498784" lon="17.9128237">
        <ele>6.4</ele>
        <time>2013-11-02T15:18:11Z</time>
      </trkpt>
      <trkpt lat="59.4499831" lon="17.9127108">
        <ele>6.2</ele>
        <time>2013-11-02T15:18:18Z</time>
      </trkpt>
      <trkpt lat="59.4501116" lon="17.9125862">
        <ele>6.2</ele>
        <time>2013-11-02T15:18:26Z</time>
      </trkpt>
      <trkpt lat="59.4502555" lon="17.9124194">
        <ele>6.4</ele>
        <time>2013-11-02T15:18:35Z</time>
      </trkpt>
      <trkpt lat="59.4503734" lon="17.9123101">
        <ele>6.8</ele>
        <time>2013-11-02T15:18:43Z</time>
      </trkpt>
      <trkpt lat="59.4504667" lon="17.9122727">
        <ele>7.2</ele>
        <time>2013-11-02T15:18:50Z</time>
      </trkpt>
      <trkpt lat="59.4505177" lon="17.9121425">
        <ele>7.6</ele>
        <time>2013-11-02T15:18:56Z</time>
      </trkpt>
      <trkpt lat="59.4505243" lon="17.9121064">
        <ele>7.6</ele>
        <time>2013-11-02T15:18:57Z</time>
      </trkpt>
      <trkpt lat="59.4506185" lon="17.9119583">
        <ele>8.4</ele>
        <time>2013-11-02T15:19:03Z</time>
      </trkpt>
      <trkpt lat="59.4506348" lon="17.9119459">
        <ele>8.6</ele>
        <time>2013-11-02T15:19:04Z</time>
      </trkpt>
      <trkpt lat="59.4506793" lon="17.9119019">
        <ele>9.2</ele>
        <time>2013-11-02T15:19:08Z</time>
      </trkpt>
      <trkpt lat="59.4507678" lon="17.9119034">
        <ele>9.8</ele>
        <time>2013-11-02T15:19:13Z</time>
      </trkpt>
      <trkpt lat="59.4508407" lon="17.9118537">
        <ele>11</ele>
        <time>2013-11-02T15:19:18Z</time>
      </trkpt>
      <trkpt lat="59.4509288" lon="17.9117818">
        <ele>13</ele>
        <time>2013-11-02T15:19:26Z</time>
      </trkpt>
      <trkpt lat="59.4509565" lon="17.9117097">
        <ele>13.8</ele>
        <time>2013-11-02T15:19:29Z</time>
      </trkpt>
      <trkpt lat="59.4509986" lon="17.9116942">
        <ele>15</ele>
        <time>2013-11-02T15:19:33Z</time>
      </trkpt>
      <trkpt lat="59.4510765" lon="17.9116698">
        <ele>16.6</ele>
        <time>2013-11-02T15:19:39Z</time>
      </trkpt>
      <trkpt lat="59.4511692" lon="17.9116816">
        <ele>18.6</ele>
        <time>2013-11-02T15:19:45Z</time>
      </trkpt>
      <trkpt lat="59.451204" lon="17.9117026">
        <ele>19.2</ele>
        <time>2013-11-02T15:19:47Z</time>
      </trkpt>
      <trkpt lat="59.4512517" lon="17.9117238">
        <ele>20.4</ele>
        <time>2013-11-02T15:19:52Z</time>
      </trkpt>
      <trkpt lat="59.4512932" lon="17.9117446">
        <ele>20.8</ele>
        <time>2013-11-02T15:19:55Z</time>
      </trkpt>
      <trkpt lat="59.4513307" lon="17.9117438">
        <ele>21.4</ele>
        <time>2013-11-02T15:19:57Z</time>
      </trkpt>
      <trkpt lat="59.4514348" lon="17.9117173">
        <ele>22</ele>
        <time>2013-11-02T15:20:05Z</time>
      </trkpt>
      <trkpt lat="59.451499" lon="17.9116403">
        <ele>22.6</ele>
        <time>2013-11-02T15:20:11Z</time>
      </trkpt>
      <trkpt lat="59.4515055" lon="17.9116382">
        <ele>22.6</ele>
        <time>2013-11-02T15:20:12Z</time>
      </trkpt>
      <trkpt lat="59.4515723" lon="17.911635">
        <ele>23</ele>
        <time>2013-11-02T15:20:18Z</time>
      </trkpt>
      <trkpt lat="59.451649" lon="17.9115638">
        <ele>24.4</ele>
        <time>2013-11-02T15:20:23Z</time>
      </trkpt>
      <trkpt lat="59.4516568" lon="17.9115583">
        <ele>24.4</ele>
        <time>2013-11-02T15:20:24Z</time>
      </trkpt>
      <trkpt lat="59.4517334" lon="17.9114818">
        <ele>26.4</ele>
        <time>2013-11-02T15:20:29Z</time>
      </trkpt>
      <trkpt lat="59.4517472" lon="17.9114616">
        <ele>26.6</ele>
        <time>2013-11-02T15:20:30Z</time>
      </trkpt>
      <trkpt lat="59.4517802" lon="17.91143">
        <ele>27.4</ele>
        <time>2013-11-02T15:20:33Z</time>
      </trkpt>
      <trkpt lat="59.451795" lon="17.9114116">
        <ele>27.8</ele>
        <time>2013-11-02T15:20:35Z</time>
      </trkpt>
      <trkpt lat="59.4518055" lon="17.9113935">
        <ele>27.8</ele>
        <time>2013-11-02T15:20:36Z</time>
      </trkpt>
      <trkpt lat="59.451839" lon="17.9113468">
        <ele>28.2</ele>
        <time>2013-11-02T15:20:39Z</time>
      </trkpt>
      <trkpt lat="59.4518573" lon="17.911324">
        <ele>28.6</ele>
        <time>2013-11-02T15:20:41Z</time>
      </trkpt>
      <trkpt lat="59.4519325" lon="17.9112294">
        <ele>28.6</ele>
        <time>2013-11-02T15:20:48Z</time>
      </trkpt>
      <trkpt lat="59.4520158" lon="17.911096">
        <ele>28.4</ele>
        <time>2013-11-02T15:20:55Z</time>
      </trkpt>
      <trkpt lat="59.4521051" lon="17.9109384">
        <ele>28.2</ele>
        <time>2013-11-02T15:21:02Z</time>
      </trkpt>
      <trkpt lat="59.4522305" lon="17.9107809">
        <ele>27.8</ele>
        <time>2013-11-02T15:21:11Z</time>
      </trkpt>
      <trkpt lat="59.4523242" lon="17.9106816">
        <ele>27.6</ele>
        <time>2013-11-02T15:21:18Z</time>
      </trkpt>
      <trkpt lat="59.4523444" lon="17.9104928">
        <ele>27.2</ele>
        <time>2013-11-02T15:21:28Z</time>
      </trkpt>
      <trkpt lat="59.4523192" lon="17.9103545">
        <ele>27</ele>
        <time>2013-11-02T15:21:33Z</time>
      </trkpt>
      <trkpt lat="59.4523073" lon="17.9102942">
        <ele>27</ele>
        <time>2013-11-02T15:21:35Z</time>
      </trkpt>
      <trkpt lat="59.452282" lon="17.9101648">
        <ele>26.6</ele>
        <time>2013-11-02T15:21:39Z</time>
      </trkpt>
      <trkpt lat="59.4522799" lon="17.9101057">
        <ele>26.6</ele>
        <time>2013-11-02T15:21:41Z</time>
      </trkpt>
      <trkpt lat="59.452288" lon="17.9098863">
        <ele>26</ele>
        <time>2013-11-02T15:21:48Z</time>
      </trkpt>
      <trkpt lat="59.4523023" lon="17.9098159">
        <ele>25.8</ele>
        <time>2013-11-02T15:21:51Z</time>
      </trkpt>
      <trkpt lat="59.452314" lon="17.9097632">
        <ele>25.6</ele>
        <time>2013-11-02T15:21:53Z</time>
      </trkpt>
      <trkpt lat="59.4523767" lon="17.9096007">
        <ele>24.6</ele>
        <time>2013-11-02T15:22:00Z</time>
      </trkpt>
      <trkpt lat="59.4524218" lon="17.9094759">
        <ele>23.6</ele>
        <time>2013-11-02T15:22:06Z</time>
      </trkpt>
      <trkpt lat="59.4524404" lon="17.9094356">
        <ele>23.4</ele>
        <time>2013-11-02T15:22:08Z</time>
      </trkpt>
      <trkpt lat="59.4524825" lon="17.9093425">
        <ele>22.6</ele>
        <time>2013-11-02T15:22:12Z</time>
      </trkpt>
      <trkpt lat="59.4525929" lon="17.9091159">
        <ele>21.2</ele>
        <time>2013-11-02T15:22:21Z</time>
      </trkpt>
      <trkpt lat="59.4526934" lon="17.9089953">
        <ele>20.2</ele>
        <time>2013-11-02T15:22:28Z</time>
      </trkpt>
      <trkpt lat="59.4528317" lon="17.9088625">
        <ele>18.8</ele>
        <time>2013-11-02T15:22:37Z</time>
      </trkpt>
      <trkpt lat="59.452908" lon="17.908819">
        <ele>18</ele>
        <time>2013-11-02T15:22:42Z</time>
      </trkpt>
      <trkpt lat="59.4529341" lon="17.9088036">
        <ele>17.8</ele>
        <time>2013-11-02T15:22:44Z</time>
      </trkpt>
      <trkpt lat="59.4530678" lon="17.9087036">
        <ele>16.4</ele>
        <time>2013-11-02T15:22:53Z</time>
      </trkpt>
      <trkpt lat="59.4532073" lon="17.9085946">
        <ele>15.2</ele>
        <time>2013-11-02T15:23:01Z</time>
      </trkpt>
      <trkpt lat="59.4532922" lon="17.9085612">
        <ele>14.6</ele>
        <time>2013-11-02T15:23:07Z</time>
      </trkpt>
      <trkpt lat="59.4533913" lon="17.9084976">
        <ele>13.8</ele>
        <time>2013-11-02T15:23:13Z</time>
      </trkpt>
      <trkpt lat="59.4534728" lon="17.9084684">
        <ele>13.4</ele>
        <time>2013-11-02T15:23:18Z</time>
      </trkpt>
      <trkpt lat="59.4535582" lon="17.9084454">
        <ele>12.6</ele>
        <time>2013-11-02T15:23:24Z</time>
      </trkpt>
      <trkpt lat="59.4536442" lon="17.908439">
        <ele>12</ele>
        <time>2013-11-02T15:23:30Z</time>
      </trkpt>
      <trkpt lat="59.4537289" lon="17.9084032">
        <ele>11.2</ele>
        <time>2013-11-02T15:23:36Z</time>
      </trkpt>
      <trkpt lat="59.4538682" lon="17.9083794">
        <ele>10.2</ele>
        <time>2013-11-02T15:23:44Z</time>
      </trkpt>
      <trkpt lat="59.4539808" lon="17.9083537">
        <ele>9.6</ele>
        <time>2013-11-02T15:23:50Z</time>
      </trkpt>
      <trkpt lat="59.4540586" lon="17.9083074">
        <ele>9.4</ele>
        <time>2013-11-02T15:23:55Z</time>
      </trkpt>
      <trkpt lat="59.4540733" lon="17.9082997">
        <ele>9.2</ele>
        <time>2013-11-02T15:23:56Z</time>
      </trkpt>
      <trkpt lat="59.4541712" lon="17.9082797">
        <ele>8.8</ele>
        <time>2013-11-02T15:24:02Z</time>
      </trkpt>
      <trkpt lat="59.4543036" lon="17.9083175">
        <ele>8.2</ele>
        <time>2013-11-02T15:24:10Z</time>
      </trkpt>
      <trkpt lat="59.4544763" lon="17.9083816">
        <ele>7.8</ele>
        <time>2013-11-02T15:24:20Z</time>
      </trkpt>
      <trkpt lat="59.4545501" lon="17.9084012">
        <ele>7.4</ele>
        <time>2013-11-02T15:24:25Z</time>
      </trkpt>
      <trkpt lat="59.4545651" lon="17.9084182">
        <ele>7.4</ele>
        <time>2013-11-02T15:24:26Z</time>
      </trkpt>
      <trkpt lat="59.4546369" lon="17.9084586">
        <ele>7.2</ele>
        <time>2013-11-02T15:24:30Z</time>
      </trkpt>
      <trkpt lat="59.4547322" lon="17.9085052">
        <ele>7</ele>
        <time>2013-11-02T15:24:35Z</time>
      </trkpt>
      <trkpt lat="59.4548542" lon="17.9085907">
        <ele>7.2</ele>
        <time>2013-11-02T15:24:42Z</time>
      </trkpt>
      <trkpt lat="59.4549239" lon="17.9086989">
        <ele>7.4</ele>
        <time>2013-11-02T15:24:48Z</time>
      </trkpt>
      <trkpt lat="59.45497" lon="17.9087552">
        <ele>7.6</ele>
        <time>2013-11-02T15:24:52Z</time>
      </trkpt>
      <trkpt lat="59.4550206" lon="17.9087907">
        <ele>8</ele>
        <time>2013-11-02T15:24:56Z</time>
      </trkpt>
      <trkpt lat="59.4550511" lon="17.9088178">
        <ele>8</ele>
        <time>2013-11-02T15:24:58Z</time>
      </trkpt>
      <trkpt lat="59.4551315" lon="17.9087855">
        <ele>8.4</ele>
        <time>2013-11-02T15:25:04Z</time>
      </trkpt>
      <trkpt lat="59.4552314" lon="17.9086974">
        <ele>9.2</ele>
        <time>2013-11-02T15:25:11Z</time>
      </trkpt>
      <trkpt lat="59.4553079" lon="17.9085848">
        <ele>9.6</ele>
        <time>2013-11-02T15:25:17Z</time>
      </trkpt>
      <trkpt lat="59.455423" lon="17.9084724">
        <ele>10</ele>
        <time>2013-11-02T15:25:25Z</time>
      </trkpt>
      <trkpt lat="59.4555476" lon="17.9083634">
        <ele>10</ele>
        <time>2013-11-02T15:25:33Z</time>
      </trkpt>
      <trkpt lat="59.4556579" lon="17.908339">
        <ele>9.8</ele>
        <time>2013-11-02T15:25:40Z</time>
      </trkpt>
      <trkpt lat="59.4557723" lon="17.9083239">
        <ele>9.4</ele>
        <time>2013-11-02T15:25:47Z</time>
      </trkpt>
      <trkpt lat="59.4558912" lon="17.9083196">
        <ele>8.8</ele>
        <time>2013-11-02T15:25:55Z</time>
      </trkpt>
      <trkpt lat="59.4559941" lon="17.9082949">
        <ele>8.4</ele>
        <time>2013-11-02T15:26:01Z</time>
      </trkpt>
      <trkpt lat="59.4560104" lon="17.9082872">
        <ele>8.4</ele>
        <time>2013-11-02T15:26:02Z</time>
      </trkpt>
      <trkpt lat="59.4561085" lon="17.9082456">
        <ele>7.8</ele>
        <time>2013-11-02T15:26:08Z</time>
      </trkpt>
      <trkpt lat="59.4561177" lon="17.9082232">
        <ele>7.8</ele>
        <time>2013-11-02T15:26:09Z</time>
      </trkpt>
      <trkpt lat="59.4561662" lon="17.908114">
        <ele>7.2</ele>
        <time>2013-11-02T15:26:14Z</time>
      </trkpt>
      <trkpt lat="59.4561987" lon="17.9079351">
        <ele>6.8</ele>
        <time>2013-11-02T15:26:20Z</time>
      </trkpt>
      <trkpt lat="59.456259" lon="17.9076982">
        <ele>6.4</ele>
        <time>2013-11-02T15:26:28Z</time>
      </trkpt>
      <trkpt lat="59.4563019" lon="17.9074518">
        <ele>6.2</ele>
        <time>2013-11-02T15:26:36Z</time>
      </trkpt>
      <trkpt lat="59.4563423" lon="17.9072345">
        <ele>6</ele>
        <time>2013-11-02T15:26:43Z</time>
      </trkpt>
      <trkpt lat="59.4563669" lon="17.9070937">
        <ele>5.8</ele>
        <time>2013-11-02T15:26:48Z</time>
      </trkpt>
      <trkpt lat="59.4563705" lon="17.9070686">
        <ele>5.8</ele>
        <time>2013-11-02T15:26:49Z</time>
      </trkpt>
      <trkpt lat="59.4563951" lon="17.9068575">
        <ele>5.6</ele>
        <time>2013-11-02T15:26:56Z</time>
      </trkpt>
      <trkpt lat="59.4564374" lon="17.9066104">
        <ele>5.2</ele>
        <time>2013-11-02T15:27:04Z</time>
      </trkpt>
      <trkpt lat="59.4564642" lon="17.9064278">
        <ele>4.8</ele>
        <time>2013-11-02T15:27:10Z</time>
      </trkpt>
      <trkpt lat="59.4564707" lon="17.9064009">
        <ele>4.8</ele>
        <time>2013-11-02T15:27:11Z</time>
      </trkpt>
      <trkpt lat="59.4564992" lon="17.9062649">
        <ele>4.2</ele>
        <time>2013-11-02T15:27:16Z</time>
      </trkpt>
      <trkpt lat="59.4565448" lon="17.9060687">
        <ele>3.8</ele>
        <time>2013-11-02T15:27:23Z</time>
      </trkpt>
      <trkpt lat="59.4566122" lon="17.9058147">
        <ele>3</ele>
        <time>2013-11-02T15:27:32Z</time>
      </trkpt>
      <trkpt lat="59.4567465" lon="17.9055155">
        <ele>2.6</ele>
        <time>2013-11-02T15:27:43Z</time>
      </trkpt>
      <trkpt lat="59.4567473" lon="17.9054824">
        <ele>2.4</ele>
        <time>2013-11-02T15:27:44Z</time>
      </trkpt>
      <trkpt lat="59.456742" lon="17.9053551">
        <ele>2.2</ele>
        <time>2013-11-02T15:27:48Z</time>
      </trkpt>
      <trkpt lat="59.4566806" lon="17.9050918">
        <ele>1.8</ele>
        <time>2013-11-02T15:27:57Z</time>
      </trkpt>
      <trkpt lat="59.4566323" lon="17.9047732">
        <ele>1.4</ele>
        <time>2013-11-02T15:28:07Z</time>
      </trkpt>
      <trkpt lat="59.4566067" lon="17.9044565">
        <ele>1.2</ele>
        <time>2013-11-02T15:28:16Z</time>
      </trkpt>
      <trkpt lat="59.456603" lon="17.9041134">
        <ele>1</ele>
        <time>2013-11-02T15:28:26Z</time>
      </trkpt>
      <trkpt lat="59.4565748" lon="17.9038631">
        <ele>0.8</ele>
        <time>2013-11-02T15:28:34Z</time>
      </trkpt>
      <trkpt lat="59.4565065" lon="17.9036195">
        <ele>0.6</ele>
        <time>2013-11-02T15:28:42Z</time>
      </trkpt>
      <trkpt lat="59.456448" lon="17.9034322">
        <ele>0.6</ele>
        <time>2013-11-02T15:28:48Z</time>
      </trkpt>
      <trkpt lat="59.4563753" lon="17.9032192">
        <ele>0.6</ele>
        <time>2013-11-02T15:28:55Z</time>
      </trkpt>
      <trkpt lat="59.4562661" lon="17.9030272">
        <ele>0.4</ele>
        <time>2013-11-02T15:29:04Z</time>
      </trkpt>
      <trkpt lat="59.4562044" lon="17.902894">
        <ele>0.2</ele>
        <time>2013-11-02T15:29:10Z</time>
      </trkpt>
      <trkpt lat="59.4561189" lon="17.9026585">
        <ele>0</ele>
        <time>2013-11-02T15:29:19Z</time>
      </trkpt>
      <trkpt lat="59.4560521" lon="17.9024781">
        <ele>0</ele>
        <time>2013-11-02T15:29:26Z</time>
      </trkpt>
      <trkpt lat="59.4559669" lon="17.9023914">
        <ele>0</ele>
        <time>2013-11-02T15:29:31Z</time>
      </trkpt>
      <trkpt lat="59.4558232" lon="17.9022474">
        <ele>0.4</ele>
        <time>2013-11-02T15:29:40Z</time>
      </trkpt>
      <trkpt lat="59.4557933" lon="17.9022242">
        <ele>0.6</ele>
        <time>2013-11-02T15:29:42Z</time>
      </trkpt>
      <trkpt lat="59.4557639" lon="17.9022914">
        <ele>0.8</ele>
        <time>2013-11-02T15:29:45Z</time>
      </trkpt>
      <trkpt lat="59.4557159" lon="17.9023827">
        <ele>1</ele>
        <time>2013-11-02T15:29:50Z</time>
      </trkpt>
      <trkpt lat="59.4557075" lon="17.902403">
        <ele>1</ele>
        <time>2013-11-02T15:29:51Z</time>
      </trkpt>
      <trkpt lat="59.4556631" lon="17.9025277">
        <ele>1</ele>
        <time>2013-11-02T15:29:57Z</time>
      </trkpt>
      <trkpt lat="59.4556501" lon="17.9025456">
        <ele>1</ele>
        <time>2013-11-02T15:29:58Z</time>
      </trkpt>
      <trkpt lat="59.4555662" lon="17.9026305">
        <ele>1</ele>
        <time>2013-11-02T15:30:04Z</time>
      </trkpt>
      <trkpt lat="59.4554687" lon="17.9026657">
        <ele>0.8</ele>
        <time>2013-11-02T15:30:10Z</time>
      </trkpt>
      <trkpt lat="59.4553719" lon="17.902693">
        <ele>0.8</ele>
        <time>2013-11-02T15:30:16Z</time>
      </trkpt>
      <trkpt lat="59.4552422" lon="17.9026528">
        <ele>0.6</ele>
        <time>2013-11-02T15:30:23Z</time>
      </trkpt>
      <trkpt lat="59.4551384" lon="17.9026337">
        <ele>0.6</ele>
        <time>2013-11-02T15:30:29Z</time>
      </trkpt>
      <trkpt lat="59.455034" lon="17.9026336">
        <ele>0.4</ele>
        <time>2013-11-02T15:30:34Z</time>
      </trkpt>
      <trkpt lat="59.4549574" lon="17.9026379">
        <ele>0.2</ele>
        <time>2013-11-02T15:30:39Z</time>
      </trkpt>
      <trkpt lat="59.4549352" lon="17.9026449">
        <ele>0.2</ele>
        <time>2013-11-02T15:30:41Z</time>
      </trkpt>
      <trkpt lat="59.4548802" lon="17.9027108">
        <ele>0</ele>
        <time>2013-11-02T15:30:45Z</time>
      </trkpt>
      <trkpt lat="59.4548176" lon="17.9027911">
        <ele>0</ele>
        <time>2013-11-02T15:30:51Z</time>
      </trkpt>
      <trkpt lat="59.4548097" lon="17.9028036">
        <ele>0</ele>
        <time>2013-11-02T15:30:52Z</time>
      </trkpt>
      <trkpt lat="59.4547333" lon="17.902903">
        <ele>0</ele>
        <time>2013-11-02T15:30:58Z</time>
      </trkpt>
      <trkpt lat="59.4546513" lon="17.9030511">
        <ele>0</ele>
        <time>2013-11-02T15:31:04Z</time>
      </trkpt>
      <trkpt lat="59.4545744" lon="17.9031749">
        <ele>0.4</ele>
        <time>2013-11-02T15:31:10Z</time>
      </trkpt>
      <trkpt lat="59.4545215" lon="17.9033123">
        <ele>0.8</ele>
        <time>2013-11-02T15:31:16Z</time>
      </trkpt>
      <trkpt lat="59.4545071" lon="17.9034203">
        <ele>1.4</ele>
        <time>2013-11-02T15:31:20Z</time>
      </trkpt>
      <trkpt lat="59.454502" lon="17.9034527">
        <ele>1.8</ele>
        <time>2013-11-02T15:31:22Z</time>
      </trkpt>
      <trkpt lat="59.4544593" lon="17.9036191">
        <ele>2.4</ele>
        <time>2013-11-02T15:31:29Z</time>
      </trkpt>
      <trkpt lat="59.45444" lon="17.903638">
        <ele>2.2</ele>
        <time>2013-11-02T15:31:30Z</time>
      </trkpt>
      <trkpt lat="59.4543903" lon="17.9036557">
        <ele>2.2</ele>
        <time>2013-11-02T15:31:33Z</time>
      </trkpt>
      <trkpt lat="59.4542962" lon="17.9036798">
        <ele>2.4</ele>
        <time>2013-11-02T15:31:39Z</time>
      </trkpt>
      <trkpt lat="59.4542264" lon="17.903693">
        <ele>3.2</ele>
        <time>2013-11-02T15:31:59Z</time>
      </trkpt>
      <trkpt lat="59.4541212" lon="17.9037048">
        <ele>3.4</ele>
        <time>2013-11-02T15:32:06Z</time>
      </trkpt>
      <trkpt lat="59.4539905" lon="17.9036731">
        <ele>3.8</ele>
        <time>2013-11-02T15:32:14Z</time>
      </trkpt>
      <trkpt lat="59.4539179" lon="17.9037028">
        <ele>3.8</ele>
        <time>2013-11-02T15:32:19Z</time>
      </trkpt>
      <trkpt lat="59.4538346" lon="17.9037659">
        <ele>3.8</ele>
        <time>2013-11-02T15:32:25Z</time>
      </trkpt>
      <trkpt lat="59.45372" lon="17.9038681">
        <ele>3.6</ele>
        <time>2013-11-02T15:32:33Z</time>
      </trkpt>
      <trkpt lat="59.4536297" lon="17.9039148">
        <ele>3.6</ele>
        <time>2013-11-02T15:32:40Z</time>
      </trkpt>
      <trkpt lat="59.4536228" lon="17.9039124">
        <ele>3.6</ele>
        <time>2013-11-02T15:32:41Z</time>
      </trkpt>
      <trkpt lat="59.4535548" lon="17.903942">
        <ele>3.4</ele>
        <time>2013-11-02T15:32:47Z</time>
      </trkpt>
      <trkpt lat="59.4534657" lon="17.9039769">
        <ele>3.2</ele>
        <time>2013-11-02T15:32:52Z</time>
      </trkpt>
      <trkpt lat="59.4533932" lon="17.9040148">
        <ele>3.2</ele>
        <time>2013-11-02T15:32:57Z</time>
      </trkpt>
      <trkpt lat="59.4532996" lon="17.9040728">
        <ele>3</ele>
        <time>2013-11-02T15:33:03Z</time>
      </trkpt>
      <trkpt lat="59.4532678" lon="17.9040963">
        <ele>3</ele>
        <time>2013-11-02T15:33:06Z</time>
      </trkpt>
      <trkpt lat="59.4532354" lon="17.9041358">
        <ele>2.8</ele>
        <time>2013-11-02T15:33:09Z</time>
      </trkpt>
      <trkpt lat="59.4531957" lon="17.9041599">
        <ele>2.8</ele>
        <time>2013-11-02T15:33:12Z</time>
      </trkpt>
      <trkpt lat="59.4531562" lon="17.9041723">
        <ele>2.8</ele>
        <time>2013-11-02T15:33:14Z</time>
      </trkpt>
      <trkpt lat="59.4530762" lon="17.9042195">
        <ele>2.6</ele>
        <time>2013-11-02T15:33:19Z</time>
      </trkpt>
      <trkpt lat="59.4529813" lon="17.9042877">
        <ele>2.4</ele>
        <time>2013-11-02T15:33:26Z</time>
      </trkpt>
      <trkpt lat="59.4529354" lon="17.9044207">
        <ele>2</ele>
        <time>2013-11-02T15:33:32Z</time>
      </trkpt>
      <trkpt lat="59.4529145" lon="17.9044346">
        <ele>2</ele>
        <time>2013-11-02T15:33:33Z</time>
      </trkpt>
      <trkpt lat="59.4528233" lon="17.904461">
        <ele>1.8</ele>
        <time>2013-11-02T15:33:39Z</time>
      </trkpt>
      <trkpt lat="59.4527124" lon="17.9044943">
        <ele>1.6</ele>
        <time>2013-11-02T15:33:46Z</time>
      </trkpt>
      <trkpt lat="59.4526505" lon="17.9045061">
        <ele>1.6</ele>
        <time>2013-11-02T15:33:50Z</time>
      </trkpt>
      <trkpt lat="59.4526074" lon="17.9045228">
        <ele>1.4</ele>
        <time>2013-11-02T15:33:53Z</time>
      </trkpt>
      <trkpt lat="59.4525706" lon="17.9045308">
        <ele>1.4</ele>
        <time>2013-11-02T15:33:55Z</time>
      </trkpt>
      <trkpt lat="59.4524689" lon="17.9045734">
        <ele>1.6</ele>
        <time>2013-11-02T15:34:00Z</time>
      </trkpt>
      <trkpt lat="59.4523536" lon="17.9046057">
        <ele>1.8</ele>
        <time>2013-11-02T15:34:07Z</time>
      </trkpt>
      <trkpt lat="59.4522678" lon="17.904645">
        <ele>2</ele>
        <time>2013-11-02T15:34:12Z</time>
      </trkpt>
      <trkpt lat="59.4521668" lon="17.904695">
        <ele>2</ele>
        <time>2013-11-02T15:34:17Z</time>
      </trkpt>
      <trkpt lat="59.4520578" lon="17.9047537">
        <ele>2</ele>
        <time>2013-11-02T15:34:24Z</time>
      </trkpt>
      <trkpt lat="59.4519785" lon="17.9047933">
        <ele>2</ele>
        <time>2013-11-02T15:34:29Z</time>
      </trkpt>
      <trkpt lat="59.4518718" lon="17.9048462">
        <ele>2.2</ele>
        <time>2013-11-02T15:34:35Z</time>
      </trkpt>
      <trkpt lat="59.4518306" lon="17.9048616">
        <ele>2.2</ele>
        <time>2013-11-02T15:34:38Z</time>
      </trkpt>
      <trkpt lat="59.4517876" lon="17.9048734">
        <ele>2.2</ele>
        <time>2013-11-02T15:34:41Z</time>
      </trkpt>
      <trkpt lat="59.4517005" lon="17.9048999">
        <ele>2</ele>
        <time>2013-11-02T15:34:46Z</time>
      </trkpt>
      <trkpt lat="59.4516641" lon="17.9049068">
        <ele>2</ele>
        <time>2013-11-02T15:34:48Z</time>
      </trkpt>
      <trkpt lat="59.4515719" lon="17.9049577">
        <ele>1.6</ele>
        <time>2013-11-02T15:34:54Z</time>
      </trkpt>
      <trkpt lat="59.4514911" lon="17.9050014">
        <ele>1.4</ele>
        <time>2013-11-02T15:35:00Z</time>
      </trkpt>
      <trkpt lat="59.4514639" lon="17.9050129">
        <ele>1.2</ele>
        <time>2013-11-02T15:35:02Z</time>
      </trkpt>
      <trkpt lat="59.451433" lon="17.9050408">
        <ele>1.2</ele>
        <time>2013-11-02T15:35:05Z</time>
      </trkpt>
      <trkpt lat="59.4513937" lon="17.9050715">
        <ele>1</ele>
        <time>2013-11-02T15:35:08Z</time>
      </trkpt>
      <trkpt lat="59.4513504" lon="17.9050819">
        <ele>1</ele>
        <time>2013-11-02T15:35:11Z</time>
      </trkpt>
      <trkpt lat="59.4512469" lon="17.9051496">
        <ele>0.8</ele>
        <time>2013-11-02T15:35:17Z</time>
      </trkpt>
      <trkpt lat="59.4511594" lon="17.9052243">
        <ele>0.6</ele>
        <time>2013-11-02T15:35:23Z</time>
      </trkpt>
      <trkpt lat="59.4510362" lon="17.9053298">
        <ele>0.6</ele>
        <time>2013-11-02T15:35:31Z</time>
      </trkpt>
      <trkpt lat="59.4509466" lon="17.905406">
        <ele>0.6</ele>
        <time>2013-11-02T15:35:36Z</time>
      </trkpt>
      <trkpt lat="59.4508378" lon="17.9055301">
        <ele>0.6</ele>
        <time>2013-11-02T15:35:42Z</time>
      </trkpt>
      <trkpt lat="59.4507591" lon="17.9055856">
        <ele>0.4</ele>
        <time>2013-11-02T15:35:47Z</time>
      </trkpt>
      <trkpt lat="59.4506659" lon="17.9056766">
        <ele>0.4</ele>
        <time>2013-11-02T15:35:53Z</time>
      </trkpt>
      <trkpt lat="59.450569" lon="17.9057686">
        <ele>0.6</ele>
        <time>2013-11-02T15:35:59Z</time>
      </trkpt>
      <trkpt lat="59.4504736" lon="17.9058722">
        <ele>0.8</ele>
        <time>2013-11-02T15:36:05Z</time>
      </trkpt>
      <trkpt lat="59.4503892" lon="17.906025">
        <ele>1</ele>
        <time>2013-11-02T15:36:11Z</time>
      </trkpt>
      <trkpt lat="59.4503353" lon="17.9060748">
        <ele>0.8</ele>
        <time>2013-11-02T15:36:14Z</time>
      </trkpt>
      <trkpt lat="59.4502966" lon="17.9060826">
        <ele>0.8</ele>
        <time>2013-11-02T15:36:16Z</time>
      </trkpt>
      <trkpt lat="59.4502076" lon="17.9060831">
        <ele>0.6</ele>
        <time>2013-11-02T15:36:21Z</time>
      </trkpt>
      <trkpt lat="59.4500872" lon="17.9060293">
        <ele>0.4</ele>
        <time>2013-11-02T15:36:28Z</time>
      </trkpt>
      <trkpt lat="59.4500488" lon="17.905985">
        <ele>0.4</ele>
        <time>2013-11-02T15:36:31Z</time>
      </trkpt>
      <trkpt lat="59.4500205" lon="17.9059717">
        <ele>0.2</ele>
        <time>2013-11-02T15:36:33Z</time>
      </trkpt>
      <trkpt lat="59.4499857" lon="17.9059571">
        <ele>0.2</ele>
        <time>2013-11-02T15:36:35Z</time>
      </trkpt>
      <trkpt lat="59.4499006" lon="17.905955">
        <ele>0</ele>
        <time>2013-11-02T15:36:39Z</time>
      </trkpt>
      <trkpt lat="59.4497781" lon="17.905923">
        <ele>0</ele>
        <time>2013-11-02T15:36:45Z</time>
      </trkpt>
      <trkpt lat="59.4496547" lon="17.9058944">
        <ele>0</ele>
        <time>2013-11-02T15:36:53Z</time>
      </trkpt>
      <trkpt lat="59.4495826" lon="17.9059051">
        <ele>0</ele>
        <time>2013-11-02T15:36:58Z</time>
      </trkpt>
      <trkpt lat="59.4495661" lon="17.9059102">
        <ele>0</ele>
        <time>2013-11-02T15:36:59Z</time>
      </trkpt>
      <trkpt lat="59.449491" lon="17.9058786">
        <ele>0.2</ele>
        <time>2013-11-02T15:37:04Z</time>
      </trkpt>
      <trkpt lat="59.4494662" lon="17.9058774">
        <ele>0.2</ele>
        <time>2013-11-02T15:37:05Z</time>
      </trkpt>
      <trkpt lat="59.4493921" lon="17.9059172">
        <ele>0.6</ele>
        <time>2013-11-02T15:37:10Z</time>
      </trkpt>
      <trkpt lat="59.4493678" lon="17.9059564">
        <ele>1</ele>
        <time>2013-11-02T15:37:13Z</time>
      </trkpt>
      <trkpt lat="59.449361" lon="17.9059841">
        <ele>1.2</ele>
        <time>2013-11-02T15:37:15Z</time>
      </trkpt>
      <trkpt lat="59.449355" lon="17.9060008">
        <ele>1.2</ele>
        <time>2013-11-02T15:37:16Z</time>
      </trkpt>
      <trkpt lat="59.4492837" lon="17.9060507">
        <ele>1.6</ele>
        <time>2013-11-02T15:37:21Z</time>
      </trkpt>
      <trkpt lat="59.4492477" lon="17.9060856">
        <ele>1.8</ele>
        <time>2013-11-02T15:37:23Z</time>
      </trkpt>
      <trkpt lat="59.4492148" lon="17.9061192">
        <ele>2.2</ele>
        <time>2013-11-02T15:37:26Z</time>
      </trkpt>
      <trkpt lat="59.4491611" lon="17.9061024">
        <ele>2.2</ele>
        <time>2013-11-02T15:37:29Z</time>
      </trkpt>
      <trkpt lat="59.4491203" lon="17.9060821">
        <ele>2</ele>
        <time>2013-11-02T15:37:31Z</time>
      </trkpt>
      <trkpt lat="59.4490326" lon="17.9060578">
        <ele>2.4</ele>
        <time>2013-11-02T15:37:38Z</time>
      </trkpt>
      <trkpt lat="59.448965" lon="17.9060675">
        <ele>2.4</ele>
        <time>2013-11-02T15:37:44Z</time>
      </trkpt>
      <trkpt lat="59.4489528" lon="17.9060698">
        <ele>2.4</ele>
        <time>2013-11-02T15:37:45Z</time>
      </trkpt>
      <trkpt lat="59.4488689" lon="17.9060934">
        <ele>2.4</ele>
        <time>2013-11-02T15:37:51Z</time>
      </trkpt>
      <trkpt lat="59.4488551" lon="17.9060953">
        <ele>2.4</ele>
        <time>2013-11-02T15:37:52Z</time>
      </trkpt>
      <trkpt lat="59.448814" lon="17.9061179">
        <ele>2.4</ele>
        <time>2013-11-02T15:37:55Z</time>
      </trkpt>
      <trkpt lat="59.4487874" lon="17.9061268">
        <ele>2.6</ele>
        <time>2013-11-02T15:37:57Z</time>
      </trkpt>
      <trkpt lat="59.4487632" lon="17.906129">
        <ele>2.6</ele>
        <time>2013-11-02T15:37:59Z</time>
      </trkpt>
      <trkpt lat="59.4486969" lon="17.9061337">
        <ele>2.6</ele>
        <time>2013-11-02T15:38:06Z</time>
      </trkpt>
      <trkpt lat="59.4486692" lon="17.9061517">
        <ele>2.6</ele>
        <time>2013-11-02T15:38:08Z</time>
      </trkpt>
      <trkpt lat="59.4486023" lon="17.9062356">
        <ele>3</ele>
        <time>2013-11-02T15:38:12Z</time>
      </trkpt>
      <trkpt lat="59.4485576" lon="17.9062633">
        <ele>3.6</ele>
        <time>2013-11-02T15:38:15Z</time>
      </trkpt>
      <trkpt lat="59.4485028" lon="17.9062916">
        <ele>3.8</ele>
        <time>2013-11-02T15:38:18Z</time>
      </trkpt>
      <trkpt lat="59.4484583" lon="17.9063187">
        <ele>4.2</ele>
        <time>2013-11-02T15:38:21Z</time>
      </trkpt>
      <trkpt lat="59.448172" lon="17.9064522">
        <ele>11.4</ele>
        <time>2013-11-02T15:39:11Z</time>
      </trkpt>
      <trkpt lat="59.4481546" lon="17.9064529">
        <ele>11.4</ele>
        <time>2013-11-02T15:39:12Z</time>
      </trkpt>
      <trkpt lat="59.448069" lon="17.9063862">
        <ele>11</ele>
        <time>2013-11-02T15:39:19Z</time>
      </trkpt>
      <trkpt lat="59.4480494" lon="17.906386">
        <ele>10.8</ele>
        <time>2013-11-02T15:39:21Z</time>
      </trkpt>
      <trkpt lat="59.4480066" lon="17.9063971">
        <ele>10.6</ele>
        <time>2013-11-02T15:39:24Z</time>
      </trkpt>
      <trkpt lat="59.4479271" lon="17.9063519">
        <ele>10</ele>
        <time>2013-11-02T15:39:30Z</time>
      </trkpt>
      <trkpt lat="59.4478942" lon="17.9063496">
        <ele>9.8</ele>
        <time>2013-11-02T15:39:32Z</time>
      </trkpt>
      <trkpt lat="59.4478675" lon="17.9063379">
        <ele>9.6</ele>
        <time>2013-11-02T15:39:34Z</time>
      </trkpt>
      <trkpt lat="59.4478558" lon="17.9063302">
        <ele>9.4</ele>
        <time>2013-11-02T15:39:35Z</time>
      </trkpt>
      <trkpt lat="59.4477616" lon="17.906317">
        <ele>8.8</ele>
        <time>2013-11-02T15:39:41Z</time>
      </trkpt>
      <trkpt lat="59.4477251" lon="17.9063096">
        <ele>8.4</ele>
        <time>2013-11-02T15:39:43Z</time>
      </trkpt>
      <trkpt lat="59.4476683" lon="17.9062915">
        <ele>8.2</ele>
        <time>2013-11-02T15:39:46Z</time>
      </trkpt>
      <trkpt lat="59.4475935" lon="17.9062608">
        <ele>7.8</ele>
        <time>2013-11-02T15:39:51Z</time>
      </trkpt>
      <trkpt lat="59.4475837" lon="17.9062595">
        <ele>7.6</ele>
        <time>2013-11-02T15:39:52Z</time>
      </trkpt>
      <trkpt lat="59.4475649" lon="17.9062403">
        <ele>7.4</ele>
        <time>2013-11-02T15:39:54Z</time>
      </trkpt>
      <trkpt lat="59.4475405" lon="17.9062185">
        <ele>7.2</ele>
        <time>2013-11-02T15:39:57Z</time>
      </trkpt>
      <trkpt lat="59.4474979" lon="17.9061144">
        <ele>6.8</ele>
        <time>2013-11-02T15:40:01Z</time>
      </trkpt>
      <trkpt lat="59.4474873" lon="17.9060861">
        <ele>6.6</ele>
        <time>2013-11-02T15:40:02Z</time>
      </trkpt>
      <trkpt lat="59.4474024" lon="17.9060075">
        <ele>6.2</ele>
        <time>2013-11-02T15:40:07Z</time>
      </trkpt>
      <trkpt lat="59.4473819" lon="17.9060055">
        <ele>6.2</ele>
        <time>2013-11-02T15:40:08Z</time>
      </trkpt>
      <trkpt lat="59.4473243" lon="17.9059458">
        <ele>6</ele>
        <time>2013-11-02T15:40:12Z</time>
      </trkpt>
      <trkpt lat="59.4472019" lon="17.9058959">
        <ele>5.8</ele>
        <time>2013-11-02T15:40:19Z</time>
      </trkpt>
      <trkpt lat="59.4471237" lon="17.9058277">
        <ele>5.8</ele>
        <time>2013-11-02T15:40:24Z</time>
      </trkpt>
      <trkpt lat="59.4470457" lon="17.9057837">
        <ele>6.4</ele>
        <time>2013-11-02T15:40:28Z</time>
      </trkpt>
      <trkpt lat="59.4469927" lon="17.9056419">
        <ele>6.8</ele>
        <time>2013-11-02T15:40:34Z</time>
      </trkpt>
      <trkpt lat="59.4469851" lon="17.9056183">
        <ele>7</ele>
        <time>2013-11-02T15:40:35Z</time>
      </trkpt>
      <trkpt lat="59.4469434" lon="17.9055036">
        <ele>7</ele>
        <time>2013-11-02T15:40:41Z</time>
      </trkpt>
      <trkpt lat="59.4469243" lon="17.9054434">
        <ele>7</ele>
        <time>2013-11-02T15:40:43Z</time>
      </trkpt>
      <trkpt lat="59.4469025" lon="17.9053553">
        <ele>6.8</ele>
        <time>2013-11-02T15:40:46Z</time>
      </trkpt>
      <trkpt lat="59.4468848" lon="17.905319">
        <ele>6.8</ele>
        <time>2013-11-02T15:40:48Z</time>
      </trkpt>
      <trkpt lat="59.4468661" lon="17.9052211">
        <ele>6.8</ele>
        <time>2013-11-02T15:40:51Z</time>
      </trkpt>
      <trkpt lat="59.44683" lon="17.9050755">
        <ele>6.8</ele>
        <time>2013-11-02T15:40:55Z</time>
      </trkpt>
      <trkpt lat="59.4468008" lon="17.9049627">
        <ele>6.8</ele>
        <time>2013-11-02T15:40:59Z</time>
      </trkpt>
      <trkpt lat="59.4467813" lon="17.9049015">
        <ele>6.8</ele>
        <time>2013-11-02T15:41:01Z</time>
      </trkpt>
      <trkpt lat="59.4467489" lon="17.9047409">
        <ele>7</ele>
        <time>2013-11-02T15:41:07Z</time>
      </trkpt>
      <trkpt lat="59.4467355" lon="17.9046829">
        <ele>7</ele>
        <time>2013-11-02T15:41:09Z</time>
      </trkpt>
      <trkpt lat="59.4466986" lon="17.9046179">
        <ele>6.8</ele>
        <time>2013-11-02T15:41:12Z</time>
      </trkpt>
      <trkpt lat="59.4466664" lon="17.9044837">
        <ele>7</ele>
        <time>2013-11-02T15:41:17Z</time>
      </trkpt>
      <trkpt lat="59.4466596" lon="17.9044598">
        <ele>6.8</ele>
        <time>2013-11-02T15:41:18Z</time>
      </trkpt>
      <trkpt lat="59.4466194" lon="17.9043716">
        <ele>7</ele>
        <time>2013-11-02T15:41:23Z</time>
      </trkpt>
      <trkpt lat="59.4466091" lon="17.904352">
        <ele>7</ele>
        <time>2013-11-02T15:41:24Z</time>
      </trkpt>
      <trkpt lat="59.4465224" lon="17.9043177">
        <ele>7</ele>
        <time>2013-11-02T15:41:31Z</time>
      </trkpt>
      <trkpt lat="59.4464383" lon="17.9043234">
        <ele>6.8</ele>
        <time>2013-11-02T15:41:37Z</time>
      </trkpt>
      <trkpt lat="59.4463863" lon="17.9043226">
        <ele>6.8</ele>
        <time>2013-11-02T15:41:42Z</time>
      </trkpt>
      <trkpt lat="59.4463589" lon="17.9043381">
        <ele>6.8</ele>
        <time>2013-11-02T15:41:44Z</time>
      </trkpt>
      <trkpt lat="59.4463199" lon="17.9043521">
        <ele>6.8</ele>
        <time>2013-11-02T15:41:47Z</time>
      </trkpt>
      <trkpt lat="59.446231" lon="17.9043926">
        <ele>6.8</ele>
        <time>2013-11-02T15:41:53Z</time>
      </trkpt>
      <trkpt lat="59.4461381" lon="17.9044652">
        <ele>6.6</ele>
        <time>2013-11-02T15:42:00Z</time>
      </trkpt>
      <trkpt lat="59.4460661" lon="17.9045268">
        <ele>6.4</ele>
        <time>2013-11-02T15:42:06Z</time>
      </trkpt>
      <trkpt lat="59.4460435" lon="17.9045737">
        <ele>6.4</ele>
        <time>2013-11-02T15:42:09Z</time>
      </trkpt>
      <trkpt lat="59.4460145" lon="17.9046112">
        <ele>6.4</ele>
        <time>2013-11-02T15:42:11Z</time>
      </trkpt>
      <trkpt lat="59.4459536" lon="17.9046246">
        <ele>6.2</ele>
        <time>2013-11-02T15:42:15Z</time>
      </trkpt>
      <trkpt lat="59.4459084" lon="17.9046554">
        <ele>6.4</ele>
        <time>2013-11-02T15:42:19Z</time>
      </trkpt>
      <trkpt lat="59.4458913" lon="17.9046696">
        <ele>6.4</ele>
        <time>2013-11-02T15:42:20Z</time>
      </trkpt>
      <trkpt lat="59.4458718" lon="17.9047043">
        <ele>6.4</ele>
        <time>2013-11-02T15:42:22Z</time>
      </trkpt>
      <trkpt lat="59.4458588" lon="17.9047343">
        <ele>6.4</ele>
        <time>2013-11-02T15:42:24Z</time>
      </trkpt>
      <trkpt lat="59.4458472" lon="17.9047554">
        <ele>6.4</ele>
        <time>2013-11-02T15:42:25Z</time>
      </trkpt>
      <trkpt lat="59.445759" lon="17.9048362">
        <ele>6.6</ele>
        <time>2013-11-02T15:42:31Z</time>
      </trkpt>
      <trkpt lat="59.4457457" lon="17.9048555">
        <ele>6.6</ele>
        <time>2013-11-02T15:42:32Z</time>
      </trkpt>
      <trkpt lat="59.4457131" lon="17.9048851">
        <ele>6.6</ele>
        <time>2013-11-02T15:42:34Z</time>
      </trkpt>
      <trkpt lat="59.4456821" lon="17.904921">
        <ele>6.6</ele>
        <time>2013-11-02T15:42:36Z</time>
      </trkpt>
      <trkpt lat="59.4456458" lon="17.9049741">
        <ele>6.8</ele>
        <time>2013-11-02T15:42:39Z</time>
      </trkpt>
      <trkpt lat="59.4456031" lon="17.9050359">
        <ele>6.8</ele>
        <time>2013-11-02T15:42:42Z</time>
      </trkpt>
      <trkpt lat="59.4455419" lon="17.9051043">
        <ele>6.6</ele>
        <time>2013-11-02T15:42:46Z</time>
      </trkpt>
      <trkpt lat="59.4454897" lon="17.905123">
        <ele>6.6</ele>
        <time>2013-11-02T15:42:51Z</time>
      </trkpt>
      <trkpt lat="59.4454817" lon="17.9051158">
        <ele>6.6</ele>
        <time>2013-11-02T15:42:52Z</time>
      </trkpt>
      <trkpt lat="59.445449" lon="17.905116">
        <ele>6.6</ele>
        <time>2013-11-02T15:42:56Z</time>
      </trkpt>
      <trkpt lat="59.4454345" lon="17.905112">
        <ele>6.6</ele>
        <time>2013-11-02T15:42:57Z</time>
      </trkpt>
      <trkpt lat="59.4453852" lon="17.9051009">
        <ele>6.6</ele>
        <time>2013-11-02T15:43:00Z</time>
      </trkpt>
      <trkpt lat="59.4453207" lon="17.9050678">
        <ele>6.6</ele>
        <time>2013-11-02T15:43:04Z</time>
      </trkpt>
      <trkpt lat="59.4452976" lon="17.9050426">
        <ele>6.4</ele>
        <time>2013-11-02T15:43:07Z</time>
      </trkpt>
      <trkpt lat="59.4453304" lon="17.905059">
        <ele>5.8</ele>
        <time>2013-11-02T15:44:02Z</time>
      </trkpt>
      <trkpt lat="59.445315" lon="17.9050585">
        <ele>5.6</ele>
        <time>2013-11-02T15:44:03Z</time>
      </trkpt>
      <trkpt lat="59.4452341" lon="17.9050365">
        <ele>5.6</ele>
        <time>2013-11-02T15:44:09Z</time>
      </trkpt>
      <trkpt lat="59.4452196" lon="17.9050335">
        <ele>5.6</ele>
        <time>2013-11-02T15:44:10Z</time>
      </trkpt>
      <trkpt lat="59.4451228" lon="17.9050337">
        <ele>5.6</ele>
        <time>2013-11-02T15:44:17Z</time>
      </trkpt>
      <trkpt lat="59.445085" lon="17.9048982">
        <ele>5.6</ele>
        <time>2013-11-02T15:44:22Z</time>
      </trkpt>
      <trkpt lat="59.4450175" lon="17.9048193">
        <ele>5.4</ele>
        <time>2013-11-02T15:44:28Z</time>
      </trkpt>
      <trkpt lat="59.4449661" lon="17.9047744">
        <ele>5.4</ele>
        <time>2013-11-02T15:44:33Z</time>
      </trkpt>
      <trkpt lat="59.4449027" lon="17.9047881">
        <ele>5.2</ele>
        <time>2013-11-02T15:44:39Z</time>
      </trkpt>
      <trkpt lat="59.4448713" lon="17.9047668">
        <ele>5.2</ele>
        <time>2013-11-02T15:44:41Z</time>
      </trkpt>
      <trkpt lat="59.4448279" lon="17.9047465">
        <ele>5.4</ele>
        <time>2013-11-02T15:44:44Z</time>
      </trkpt>
      <trkpt lat="59.4447893" lon="17.9047442">
        <ele>5.8</ele>
        <time>2013-11-02T15:44:48Z</time>
      </trkpt>
      <trkpt lat="59.4447415" lon="17.9047816">
        <ele>5.8</ele>
        <time>2013-11-02T15:44:51Z</time>
      </trkpt>
      <trkpt lat="59.4447082" lon="17.9047925">
        <ele>6</ele>
        <time>2013-11-02T15:44:55Z</time>
      </trkpt>
      <trkpt lat="59.4446966" lon="17.9048021">
        <ele>6</ele>
        <time>2013-11-02T15:44:56Z</time>
      </trkpt>
      <trkpt lat="59.444646" lon="17.9047973">
        <ele>5.8</ele>
        <time>2013-11-02T15:44:59Z</time>
      </trkpt>
      <trkpt lat="59.4446205" lon="17.9048202">
        <ele>5.8</ele>
        <time>2013-11-02T15:45:01Z</time>
      </trkpt>
      <trkpt lat="59.4445659" lon="17.9048027">
        <ele>5.8</ele>
        <time>2013-11-02T15:45:06Z</time>
      </trkpt>
      <trkpt lat="59.4444999" lon="17.9048603">
        <ele>5.6</ele>
        <time>2013-11-02T15:45:11Z</time>
      </trkpt>
      <trkpt lat="59.4444192" lon="17.9049844">
        <ele>5.2</ele>
        <time>2013-11-02T15:45:18Z</time>
      </trkpt>
      <trkpt lat="59.4444057" lon="17.9050286">
        <ele>5.2</ele>
        <time>2013-11-02T15:45:20Z</time>
      </trkpt>
      <trkpt lat="59.4443879" lon="17.905097">
        <ele>5</ele>
        <time>2013-11-02T15:45:24Z</time>
      </trkpt>
      <trkpt lat="59.4443432" lon="17.905247">
        <ele>4.8</ele>
        <time>2013-11-02T15:45:31Z</time>
      </trkpt>
      <trkpt lat="59.4443345" lon="17.9052749">
        <ele>4.8</ele>
        <time>2013-11-02T15:45:32Z</time>
      </trkpt>
      <trkpt lat="59.444241" lon="17.9054594">
        <ele>5.2</ele>
        <time>2013-11-02T15:45:38Z</time>
      </trkpt>
      <trkpt lat="59.4441432" lon="17.905578">
        <ele>6</ele>
        <time>2013-11-02T15:45:46Z</time>
      </trkpt>
      <trkpt lat="59.4441402" lon="17.9055838">
        <ele>6</ele>
        <time>2013-11-02T15:45:47Z</time>
      </trkpt>
      <trkpt lat="59.4441377" lon="17.9056363">
        <ele>6.2</ele>
        <time>2013-11-02T15:45:52Z</time>
      </trkpt>
      <trkpt lat="59.4440981" lon="17.9057253">
        <ele>6.6</ele>
        <time>2013-11-02T15:45:57Z</time>
      </trkpt>
      <trkpt lat="59.4440934" lon="17.9057372">
        <ele>6.6</ele>
        <time>2013-11-02T15:45:58Z</time>
      </trkpt>
      <trkpt lat="59.4440736" lon="17.9057971">
        <ele>6.6</ele>
        <time>2013-11-02T15:46:02Z</time>
      </trkpt>
      <trkpt lat="59.4440605" lon="17.9058293">
        <ele>6.4</ele>
        <time>2013-11-02T15:46:03Z</time>
      </trkpt>
      <trkpt lat="59.4440429" lon="17.9059152">
        <ele>6.4</ele>
        <time>2013-11-02T15:46:07Z</time>
      </trkpt>
      <trkpt lat="59.4440307" lon="17.905964">
        <ele>6.4</ele>
        <time>2013-11-02T15:46:10Z</time>
      </trkpt>
      <trkpt lat="59.4440261" lon="17.9059935">
        <ele>6.4</ele>
        <time>2013-11-02T15:46:12Z</time>
      </trkpt>
      <trkpt lat="59.4440099" lon="17.9061048">
        <ele>6.4</ele>
        <time>2013-11-02T15:46:16Z</time>
      </trkpt>
      <trkpt lat="59.4439998" lon="17.9061924">
        <ele>6.4</ele>
        <time>2013-11-02T15:46:19Z</time>
      </trkpt>
      <trkpt lat="59.4439756" lon="17.906266">
        <ele>6.4</ele>
        <time>2013-11-02T15:46:22Z</time>
      </trkpt>
      <trkpt lat="59.4439245" lon="17.9063931">
        <ele>6.8</ele>
        <time>2013-11-02T15:46:28Z</time>
      </trkpt>
      <trkpt lat="59.4439184" lon="17.9064017">
        <ele>7</ele>
        <time>2013-11-02T15:46:29Z</time>
      </trkpt>
      <trkpt lat="59.4438951" lon="17.9064859">
        <ele>7.4</ele>
        <time>2013-11-02T15:46:32Z</time>
      </trkpt>
      <trkpt lat="59.4438845" lon="17.9065317">
        <ele>7.6</ele>
        <time>2013-11-02T15:46:34Z</time>
      </trkpt>
      <trkpt lat="59.4438131" lon="17.9066336">
        <ele>8.4</ele>
        <time>2013-11-02T15:46:38Z</time>
      </trkpt>
      <trkpt lat="59.4437847" lon="17.9066622">
        <ele>9.2</ele>
        <time>2013-11-02T15:46:41Z</time>
      </trkpt>
      <trkpt lat="59.4437492" lon="17.9066904">
        <ele>9.4</ele>
        <time>2013-11-02T15:46:43Z</time>
      </trkpt>
      <trkpt lat="59.4436681" lon="17.9067799">
        <ele>10.8</ele>
        <time>2013-11-02T15:46:48Z</time>
      </trkpt>
      <trkpt lat="59.44366" lon="17.9068481">
        <ele>11.4</ele>
        <time>2013-11-02T15:46:51Z</time>
      </trkpt>
      <trkpt lat="59.4436749" lon="17.9068796">
        <ele>11.8</ele>
        <time>2013-11-02T15:46:53Z</time>
      </trkpt>
      <trkpt lat="59.4436845" lon="17.9069062">
        <ele>12</ele>
        <time>2013-11-02T15:46:55Z</time>
      </trkpt>
      <trkpt lat="59.4436702" lon="17.9069939">
        <ele>12.4</ele>
        <time>2013-11-02T15:46:58Z</time>
      </trkpt>
      <trkpt lat="59.4436507" lon="17.9070345">
        <ele>12.6</ele>
        <time>2013-11-02T15:47:00Z</time>
      </trkpt>
      <trkpt lat="59.4436234" lon="17.9071266">
        <ele>13</ele>
        <time>2013-11-02T15:47:04Z</time>
      </trkpt>
      <trkpt lat="59.4435717" lon="17.9072625">
        <ele>14</ele>
        <time>2013-11-02T15:47:10Z</time>
      </trkpt>
      <trkpt lat="59.4435753" lon="17.9073205">
        <ele>14.2</ele>
        <time>2013-11-02T15:47:12Z</time>
      </trkpt>
      <trkpt lat="59.4435786" lon="17.9073813">
        <ele>14.6</ele>
        <time>2013-11-02T15:47:14Z</time>
      </trkpt>
      <trkpt lat="59.4435787" lon="17.9074003">
        <ele>14.4</ele>
        <time>2013-11-02T15:47:15Z</time>
      </trkpt>
      <trkpt lat="59.4435997" lon="17.9075858">
        <ele>14.2</ele>
        <time>2013-11-02T15:47:22Z</time>
      </trkpt>
      <trkpt lat="59.4436257" lon="17.9077267">
        <ele>14.2</ele>
        <time>2013-11-02T15:47:27Z</time>
      </trkpt>
      <trkpt lat="59.4436282" lon="17.9077474">
        <ele>14.2</ele>
        <time>2013-11-02T15:47:28Z</time>
      </trkpt>
      <trkpt lat="59.4436409" lon="17.9078483">
        <ele>14</ele>
        <time>2013-11-02T15:47:32Z</time>
      </trkpt>
      <trkpt lat="59.4436437" lon="17.9079074">
        <ele>14</ele>
        <time>2013-11-02T15:47:34Z</time>
      </trkpt>
      <trkpt lat="59.4436833" lon="17.9081069">
        <ele>13.8</ele>
        <time>2013-11-02T15:47:39Z</time>
      </trkpt>
      <trkpt lat="59.4437252" lon="17.9082746">
        <ele>13.8</ele>
        <time>2013-11-02T15:47:45Z</time>
      </trkpt>
      <trkpt lat="59.4437378" lon="17.9083828">
        <ele>13.4</ele>
        <time>2013-11-02T15:47:49Z</time>
      </trkpt>
      <trkpt lat="59.4437394" lon="17.9084499">
        <ele>13.4</ele>
        <time>2013-11-02T15:47:52Z</time>
      </trkpt>
      <trkpt lat="59.4437549" lon="17.9085322">
        <ele>13</ele>
        <time>2013-11-02T15:47:56Z</time>
      </trkpt>
      <trkpt lat="59.4437649" lon="17.9085745">
        <ele>12.8</ele>
        <time>2013-11-02T15:47:58Z</time>
      </trkpt>
      <trkpt lat="59.4437881" lon="17.9087538">
        <ele>12.4</ele>
        <time>2013-11-02T15:48:04Z</time>
      </trkpt>
      <trkpt lat="59.4437656" lon="17.9089402">
        <ele>12.2</ele>
        <time>2013-11-02T15:48:10Z</time>
      </trkpt>
      <trkpt lat="59.4437701" lon="17.9090736">
        <ele>11.8</ele>
        <time>2013-11-02T15:48:15Z</time>
      </trkpt>
      <trkpt lat="59.4438097" lon="17.9092222">
        <ele>11.4</ele>
        <time>2013-11-02T15:48:21Z</time>
      </trkpt>
      <trkpt lat="59.4438125" lon="17.9093564">
        <ele>11.2</ele>
        <time>2013-11-02T15:48:25Z</time>
      </trkpt>
      <trkpt lat="59.4438095" lon="17.909383">
        <ele>11.2</ele>
        <time>2013-11-02T15:48:26Z</time>
      </trkpt>
      <trkpt lat="59.4438007" lon="17.9095325">
        <ele>10.8</ele>
        <time>2013-11-02T15:48:32Z</time>
      </trkpt>
      <trkpt lat="59.4437928" lon="17.9096832">
        <ele>10.6</ele>
        <time>2013-11-02T15:48:37Z</time>
      </trkpt>
      <trkpt lat="59.4437541" lon="17.9098107">
        <ele>10.6</ele>
        <time>2013-11-02T15:48:42Z</time>
      </trkpt>
      <trkpt lat="59.4437506" lon="17.9098371">
        <ele>10.6</ele>
        <time>2013-11-02T15:48:43Z</time>
      </trkpt>
      <trkpt lat="59.4437268" lon="17.9099193">
        <ele>10.6</ele>
        <time>2013-11-02T15:48:46Z</time>
      </trkpt>
      <trkpt lat="59.4437201" lon="17.9099775">
        <ele>10.8</ele>
        <time>2013-11-02T15:48:48Z</time>
      </trkpt>
      <trkpt lat="59.4436933" lon="17.9100624">
        <ele>11</ele>
        <time>2013-11-02T15:48:51Z</time>
      </trkpt>
      <trkpt lat="59.4436635" lon="17.9101561">
        <ele>10.8</ele>
        <time>2013-11-02T15:48:55Z</time>
      </trkpt>
      <trkpt lat="59.4436418" lon="17.9102915">
        <ele>10.8</ele>
        <time>2013-11-02T15:49:00Z</time>
      </trkpt>
      <trkpt lat="59.4436334" lon="17.9104531">
        <ele>10.6</ele>
        <time>2013-11-02T15:49:06Z</time>
      </trkpt>
      <trkpt lat="59.4436277" lon="17.9104799">
        <ele>10.6</ele>
        <time>2013-11-02T15:49:07Z</time>
      </trkpt>
      <trkpt lat="59.4436189" lon="17.9105647">
        <ele>10.4</ele>
        <time>2013-11-02T15:49:10Z</time>
      </trkpt>
      <trkpt lat="59.4436124" lon="17.9106173">
        <ele>10.4</ele>
        <time>2013-11-02T15:49:12Z</time>
      </trkpt>
      <trkpt lat="59.443545" lon="17.9107488">
        <ele>10.2</ele>
        <time>2013-11-02T15:49:18Z</time>
      </trkpt>
      <trkpt lat="59.4435174" lon="17.9108325">
        <ele>10</ele>
        <time>2013-11-02T15:49:22Z</time>
      </trkpt>
      <trkpt lat="59.4435141" lon="17.9108487">
        <ele>10</ele>
        <time>2013-11-02T15:49:23Z</time>
      </trkpt>
      <trkpt lat="59.4435028" lon="17.9108688">
        <ele>10</ele>
        <time>2013-11-02T15:49:24Z</time>
      </trkpt>
      <trkpt lat="59.4434458" lon="17.9109683">
        <ele>10</ele>
        <time>2013-11-02T15:49:29Z</time>
      </trkpt>
      <trkpt lat="59.4433978" lon="17.9110375">
        <ele>10.4</ele>
        <time>2013-11-02T15:49:32Z</time>
      </trkpt>
      <trkpt lat="59.4433417" lon="17.9111089">
        <ele>11.2</ele>
        <time>2013-11-02T15:49:36Z</time>
      </trkpt>
      <trkpt lat="59.443263" lon="17.9112445">
        <ele>12</ele>
        <time>2013-11-02T15:49:43Z</time>
      </trkpt>
      <trkpt lat="59.4432079" lon="17.9113267">
        <ele>12.4</ele>
        <time>2013-11-02T15:49:48Z</time>
      </trkpt>
      <trkpt lat="59.4431646" lon="17.9113711">
        <ele>12.6</ele>
        <time>2013-11-02T15:49:52Z</time>
      </trkpt>
      <trkpt lat="59.4430557" lon="17.9115306">
        <ele>13.2</ele>
        <time>2013-11-02T15:50:00Z</time>
      </trkpt>
      <trkpt lat="59.442966" lon="17.9116719">
        <ele>13.4</ele>
        <time>2013-11-02T15:50:07Z</time>
      </trkpt>
      <trkpt lat="59.4429069" lon="17.911762">
        <ele>13.6</ele>
        <time>2013-11-02T15:50:12Z</time>
      </trkpt>
      <trkpt lat="59.4428418" lon="17.9118559">
        <ele>14</ele>
        <time>2013-11-02T15:50:18Z</time>
      </trkpt>
      <trkpt lat="59.44277" lon="17.9119452">
        <ele>14</ele>
        <time>2013-11-02T15:50:24Z</time>
      </trkpt>
      <trkpt lat="59.4427027" lon="17.9120257">
        <ele>14</ele>
        <time>2013-11-02T15:50:29Z</time>
      </trkpt>
      <trkpt lat="59.4426399" lon="17.9120422">
        <ele>13.8</ele>
        <time>2013-11-02T15:50:33Z</time>
      </trkpt>
      <trkpt lat="59.4426023" lon="17.9120614">
        <ele>13.8</ele>
        <time>2013-11-02T15:50:35Z</time>
      </trkpt>
      <trkpt lat="59.4425184" lon="17.9120188">
        <ele>13.6</ele>
        <time>2013-11-02T15:50:40Z</time>
      </trkpt>
      <trkpt lat="59.4425054" lon="17.9120039">
        <ele>13.6</ele>
        <time>2013-11-02T15:50:41Z</time>
      </trkpt>
      <trkpt lat="59.4424787" lon="17.9119501">
        <ele>13.6</ele>
        <time>2013-11-02T15:50:43Z</time>
      </trkpt>
      <trkpt lat="59.4424359" lon="17.9119154">
        <ele>13.4</ele>
        <time>2013-11-02T15:50:46Z</time>
      </trkpt>
      <trkpt lat="59.4423749" lon="17.9119348">
        <ele>13.2</ele>
        <time>2013-11-02T15:50:50Z</time>
      </trkpt>
      <trkpt lat="59.4423626" lon="17.9119473">
        <ele>13.2</ele>
        <time>2013-11-02T15:50:51Z</time>
      </trkpt>
      <trkpt lat="59.4422757" lon="17.911976">
        <ele>13</ele>
        <time>2013-11-02T15:50:57Z</time>
      </trkpt>
      <trkpt lat="59.4421904" lon="17.9119908">
        <ele>12.8</ele>
        <time>2013-11-02T15:51:02Z</time>
      </trkpt>
      <trkpt lat="59.4421766" lon="17.9120048">
        <ele>12.8</ele>
        <time>2013-11-02T15:51:03Z</time>
      </trkpt>
      <trkpt lat="59.4420917" lon="17.9120113">
        <ele>12.8</ele>
        <time>2013-11-02T15:51:08Z</time>
      </trkpt>
      <trkpt lat="59.4420783" lon="17.9120038">
        <ele>12.8</ele>
        <time>2013-11-02T15:51:09Z</time>
      </trkpt>
      <trkpt lat="59.4420145" lon="17.9119853">
        <ele>12.6</ele>
        <time>2013-11-02T15:51:13Z</time>
      </trkpt>
      <trkpt lat="59.4419972" lon="17.9119834">
        <ele>12.6</ele>
        <time>2013-11-02T15:51:14Z</time>
      </trkpt>
      <trkpt lat="59.4419102" lon="17.9119865">
        <ele>12.6</ele>
        <time>2013-11-02T15:51:20Z</time>
      </trkpt>
      <trkpt lat="59.4418881" lon="17.9119996">
        <ele>12.4</ele>
        <time>2013-11-02T15:51:26Z</time>
      </trkpt>
      <trkpt lat="59.4418375" lon="17.9120533">
        <ele>12.2</ele>
        <time>2013-11-02T15:51:30Z</time>
      </trkpt>
      <trkpt lat="59.4418264" lon="17.9120672">
        <ele>12</ele>
        <time>2013-11-02T15:51:31Z</time>
      </trkpt>
      <trkpt lat="59.441739" lon="17.9120773">
        <ele>12</ele>
        <time>2013-11-02T15:51:37Z</time>
      </trkpt>
      <trkpt lat="59.4416224" lon="17.9120685">
        <ele>12</ele>
        <time>2013-11-02T15:51:44Z</time>
      </trkpt>
      <trkpt lat="59.4415417" lon="17.9121089">
        <ele>12.2</ele>
        <time>2013-11-02T15:51:50Z</time>
      </trkpt>
      <trkpt lat="59.4414101" lon="17.9121894">
        <ele>12.4</ele>
        <time>2013-11-02T15:51:59Z</time>
      </trkpt>
      <trkpt lat="59.4413065" lon="17.9122665">
        <ele>12.2</ele>
        <time>2013-11-02T15:52:06Z</time>
      </trkpt>
      <trkpt lat="59.4412009" lon="17.912257">
        <ele>12.2</ele>
        <time>2013-11-02T15:52:13Z</time>
      </trkpt>
      <trkpt lat="59.4410909" lon="17.9122663">
        <ele>12</ele>
        <time>2013-11-02T15:52:20Z</time>
      </trkpt>
      <trkpt lat="59.4409963" lon="17.9123066">
        <ele>12</ele>
        <time>2013-11-02T15:52:27Z</time>
      </trkpt>
      <trkpt lat="59.4408993" lon="17.9123606">
        <ele>11.8</ele>
        <time>2013-11-02T15:52:34Z</time>
      </trkpt>
      <trkpt lat="59.4408729" lon="17.9123704">
        <ele>11.8</ele>
        <time>2013-11-02T15:52:36Z</time>
      </trkpt>
      <trkpt lat="59.4408392" lon="17.9123225">
        <ele>11.8</ele>
        <time>2013-11-02T15:52:39Z</time>
      </trkpt>
      <trkpt lat="59.4408253" lon="17.9122065">
        <ele>11.6</ele>
        <time>2013-11-02T15:52:44Z</time>
      </trkpt>
      <trkpt lat="59.44082" lon="17.9121898">
        <ele>11.6</ele>
        <time>2013-11-02T15:52:45Z</time>
      </trkpt>
      <trkpt lat="59.4407921" lon="17.9120524">
        <ele>11.6</ele>
        <time>2013-11-02T15:52:52Z</time>
      </trkpt>
      <trkpt lat="59.4407591" lon="17.9117439">
        <ele>11.4</ele>
        <time>2013-11-02T15:53:02Z</time>
      </trkpt>
      <trkpt lat="59.4407592" lon="17.9116936">
        <ele>11.4</ele>
        <time>2013-11-02T15:53:07Z</time>
      </trkpt>
      <trkpt lat="59.440763" lon="17.9116909">
        <ele>11.4</ele>
        <time>2013-11-02T15:53:09Z</time>
      </trkpt>
      <trkpt lat="59.4407768" lon="17.911697">
        <ele>12.8</ele>
        <time>2013-11-02T15:53:35Z</time>
      </trkpt>
      <trkpt lat="59.4407676" lon="17.9116048">
        <ele>13</ele>
        <time>2013-11-02T15:53:38Z</time>
      </trkpt>
      <trkpt lat="59.4407781" lon="17.9115137">
        <ele>13.2</ele>
        <time>2013-11-02T15:53:41Z</time>
      </trkpt>
      <trkpt lat="59.4407786" lon="17.9114216">
        <ele>13.6</ele>
        <time>2013-11-02T15:53:44Z</time>
      </trkpt>
      <trkpt lat="59.4407376" lon="17.9112687">
        <ele>14</ele>
        <time>2013-11-02T15:53:50Z</time>
      </trkpt>
      <trkpt lat="59.4406824" lon="17.9111833">
        <ele>14.2</ele>
        <time>2013-11-02T15:53:56Z</time>
      </trkpt>
      <trkpt lat="59.4406708" lon="17.9111742">
        <ele>14.2</ele>
        <time>2013-11-02T15:53:57Z</time>
      </trkpt>
      <trkpt lat="59.4406277" lon="17.9111599">
        <ele>14.4</ele>
        <time>2013-11-02T15:54:00Z</time>
      </trkpt>
      <trkpt lat="59.4405823" lon="17.9111352">
        <ele>14.8</ele>
        <time>2013-11-02T15:54:03Z</time>
      </trkpt>
      <trkpt lat="59.4404901" lon="17.9111244">
        <ele>15.4</ele>
        <time>2013-11-02T15:54:09Z</time>
      </trkpt>
      <trkpt lat="59.4404617" lon="17.9110935">
        <ele>15.6</ele>
        <time>2013-11-02T15:54:11Z</time>
      </trkpt>
      <trkpt lat="59.4404333" lon="17.911071">
        <ele>15.6</ele>
        <time>2013-11-02T15:54:13Z</time>
      </trkpt>
      <trkpt lat="59.4403857" lon="17.9110652">
        <ele>15.8</ele>
        <time>2013-11-02T15:54:16Z</time>
      </trkpt>
      <trkpt lat="59.4403502" lon="17.9110793">
        <ele>15.8</ele>
        <time>2013-11-02T15:54:19Z</time>
      </trkpt>
      <trkpt lat="59.4403383" lon="17.9110922">
        <ele>15.8</ele>
        <time>2013-11-02T15:54:20Z</time>
      </trkpt>
      <trkpt lat="59.4402484" lon="17.9111313">
        <ele>16</ele>
        <time>2013-11-02T15:54:26Z</time>
      </trkpt>
      <trkpt lat="59.440094" lon="17.9111474">
        <ele>16</ele>
        <time>2013-11-02T15:54:36Z</time>
      </trkpt>
      <trkpt lat="59.4399694" lon="17.9111673">
        <ele>16</ele>
        <time>2013-11-02T15:54:44Z</time>
      </trkpt>
      <trkpt lat="59.4399378" lon="17.9111781">
        <ele>16</ele>
        <time>2013-11-02T15:54:46Z</time>
      </trkpt>
      <trkpt lat="59.4398878" lon="17.9111948">
        <ele>16</ele>
        <time>2013-11-02T15:54:49Z</time>
      </trkpt>
      <trkpt lat="59.4398695" lon="17.9111992">
        <ele>16</ele>
        <time>2013-11-02T15:54:50Z</time>
      </trkpt>
      <trkpt lat="59.4397688" lon="17.9112295">
        <ele>15.8</ele>
        <time>2013-11-02T15:54:56Z</time>
      </trkpt>
      <trkpt lat="59.4396824" lon="17.9112607">
        <ele>15.8</ele>
        <time>2013-11-02T15:55:01Z</time>
      </trkpt>
      <trkpt lat="59.4395991" lon="17.9112643">
        <ele>15.6</ele>
        <time>2013-11-02T15:55:06Z</time>
      </trkpt>
      <trkpt lat="59.439457" lon="17.9112954">
        <ele>15.6</ele>
        <time>2013-11-02T15:55:15Z</time>
      </trkpt>
      <trkpt lat="59.43944" lon="17.9113001">
        <ele>15.6</ele>
        <time>2013-11-02T15:55:16Z</time>
      </trkpt>
      <trkpt lat="59.4393935" lon="17.9113064">
        <ele>15.6</ele>
        <time>2013-11-02T15:55:19Z</time>
      </trkpt>
      <trkpt lat="59.4393126" lon="17.9113215">
        <ele>15.4</ele>
        <time>2013-11-02T15:55:24Z</time>
      </trkpt>
      <trkpt lat="59.4391634" lon="17.9113048">
        <ele>15.2</ele>
        <time>2013-11-02T15:55:33Z</time>
      </trkpt>
      <trkpt lat="59.4390188" lon="17.9113072">
        <ele>15</ele>
        <time>2013-11-02T15:55:42Z</time>
      </trkpt>
      <trkpt lat="59.4388999" lon="17.9113661">
        <ele>14.6</ele>
        <time>2013-11-02T15:55:50Z</time>
      </trkpt>
      <trkpt lat="59.4387584" lon="17.9114428">
        <ele>14.2</ele>
        <time>2013-11-02T15:55:59Z</time>
      </trkpt>
      <trkpt lat="59.4386688" lon="17.9114863">
        <ele>14</ele>
        <time>2013-11-02T15:56:05Z</time>
      </trkpt>
      <trkpt lat="59.4385712" lon="17.9115823">
        <ele>13.8</ele>
        <time>2013-11-02T15:56:12Z</time>
      </trkpt>
      <trkpt lat="59.4384895" lon="17.9116931">
        <ele>13.8</ele>
        <time>2013-11-02T15:56:19Z</time>
      </trkpt>
      <trkpt lat="59.4384281" lon="17.9117965">
        <ele>13.6</ele>
        <time>2013-11-02T15:56:25Z</time>
      </trkpt>
      <trkpt lat="59.4383818" lon="17.9118706">
        <ele>13.4</ele>
        <time>2013-11-02T15:56:29Z</time>
      </trkpt>
      <trkpt lat="59.4383683" lon="17.9118912">
        <ele>13.4</ele>
        <time>2013-11-02T15:56:30Z</time>
      </trkpt>
      <trkpt lat="59.4383378" lon="17.9119613">
        <ele>13.4</ele>
        <time>2013-11-02T15:56:33Z</time>
      </trkpt>
      <trkpt lat="59.4382958" lon="17.912071">
        <ele>13.2</ele>
        <time>2013-11-02T15:56:37Z</time>
      </trkpt>
      <trkpt lat="59.4382361" lon="17.9122425">
        <ele>13.2</ele>
        <time>2013-11-02T15:56:44Z</time>
      </trkpt>
      <trkpt lat="59.4382089" lon="17.9123182">
        <ele>13.2</ele>
        <time>2013-11-02T15:56:47Z</time>
      </trkpt>
      <trkpt lat="59.4381847" lon="17.9124251">
        <ele>13.2</ele>
        <time>2013-11-02T15:56:51Z</time>
      </trkpt>
      <trkpt lat="59.4381458" lon="17.9125942">
        <ele>13.2</ele>
        <time>2013-11-02T15:56:57Z</time>
      </trkpt>
      <trkpt lat="59.4380986" lon="17.9127672">
        <ele>13</ele>
        <time>2013-11-02T15:57:03Z</time>
      </trkpt>
      <trkpt lat="59.4380374" lon="17.9129624">
        <ele>13</ele>
        <time>2013-11-02T15:57:10Z</time>
      </trkpt>
      <trkpt lat="59.4379912" lon="17.9131881">
        <ele>12.8</ele>
        <time>2013-11-02T15:57:17Z</time>
      </trkpt>
      <trkpt lat="59.4379445" lon="17.913402">
        <ele>12.8</ele>
        <time>2013-11-02T15:57:24Z</time>
      </trkpt>
      <trkpt lat="59.4379029" lon="17.9136502">
        <ele>12.6</ele>
        <time>2013-11-02T15:57:32Z</time>
      </trkpt>
      <trkpt lat="59.437862" lon="17.9138308">
        <ele>12.6</ele>
        <time>2013-11-02T15:57:38Z</time>
      </trkpt>
      <trkpt lat="59.4378227" lon="17.9140708">
        <ele>12.8</ele>
        <time>2013-11-02T15:57:46Z</time>
      </trkpt>
      <trkpt lat="59.4378078" lon="17.9141599">
        <ele>13</ele>
        <time>2013-11-02T15:57:49Z</time>
      </trkpt>
      <trkpt lat="59.437784" lon="17.9142761">
        <ele>13.2</ele>
        <time>2013-11-02T15:57:53Z</time>
      </trkpt>
      <trkpt lat="59.4377312" lon="17.9145339">
        <ele>13.2</ele>
        <time>2013-11-02T15:58:01Z</time>
      </trkpt>
      <trkpt lat="59.4376824" lon="17.9147954">
        <ele>13.4</ele>
        <time>2013-11-02T15:58:09Z</time>
      </trkpt>
      <trkpt lat="59.4376654" lon="17.9148775">
        <ele>13.2</ele>
        <time>2013-11-02T15:58:12Z</time>
      </trkpt>
      <trkpt lat="59.4376559" lon="17.9149592">
        <ele>13.2</ele>
        <time>2013-11-02T15:58:15Z</time>
      </trkpt>
      <trkpt lat="59.4376146" lon="17.9151042">
        <ele>13</ele>
        <time>2013-11-02T15:58:20Z</time>
      </trkpt>
      <trkpt lat="59.4376079" lon="17.9151369">
        <ele>13</ele>
        <time>2013-11-02T15:58:21Z</time>
      </trkpt>
      <trkpt lat="59.4375909" lon="17.9152403">
        <ele>12.8</ele>
        <time>2013-11-02T15:58:25Z</time>
      </trkpt>
      <trkpt lat="59.4375861" lon="17.9152736">
        <ele>12.8</ele>
        <time>2013-11-02T15:58:26Z</time>
      </trkpt>
      <trkpt lat="59.4375517" lon="17.9154184">
        <ele>12.6</ele>
        <time>2013-11-02T15:58:31Z</time>
      </trkpt>
      <trkpt lat="59.4375448" lon="17.9154524">
        <ele>12.6</ele>
        <time>2013-11-02T15:58:32Z</time>
      </trkpt>
      <trkpt lat="59.4375061" lon="17.9156562">
        <ele>12.6</ele>
        <time>2013-11-02T15:58:39Z</time>
      </trkpt>
      <trkpt lat="59.4374712" lon="17.9158539">
        <ele>12.6</ele>
        <time>2013-11-02T15:58:46Z</time>
      </trkpt>
      <trkpt lat="59.4374589" lon="17.9159358">
        <ele>12.6</ele>
        <time>2013-11-02T15:58:49Z</time>
      </trkpt>
      <trkpt lat="59.4374537" lon="17.9159978">
        <ele>12.6</ele>
        <time>2013-11-02T15:58:51Z</time>
      </trkpt>
      <trkpt lat="59.4374224" lon="17.9162024">
        <ele>12.6</ele>
        <time>2013-11-02T15:58:57Z</time>
      </trkpt>
      <trkpt lat="59.4374187" lon="17.9162693">
        <ele>12.6</ele>
        <time>2013-11-02T15:58:59Z</time>
      </trkpt>
      <trkpt lat="59.4374176" lon="17.9163764">
        <ele>12.6</ele>
        <time>2013-11-02T15:59:03Z</time>
      </trkpt>
      <trkpt lat="59.4373759" lon="17.9165284">
        <ele>12.6</ele>
        <time>2013-11-02T15:59:08Z</time>
      </trkpt>
      <trkpt lat="59.4373778" lon="17.916579">
        <ele>12.6</ele>
        <time>2013-11-02T15:59:10Z</time>
      </trkpt>
      <trkpt lat="59.4373943" lon="17.9166614">
        <ele>12.6</ele>
        <time>2013-11-02T15:59:13Z</time>
      </trkpt>
      <trkpt lat="59.4373994" lon="17.9167241">
        <ele>12.6</ele>
        <time>2013-11-02T15:59:15Z</time>
      </trkpt>
      <trkpt lat="59.4374052" lon="17.9168421">
        <ele>12.4</ele>
        <time>2013-11-02T15:59:19Z</time>
      </trkpt>
      <trkpt lat="59.4374203" lon="17.9169947">
        <ele>12.4</ele>
        <time>2013-11-02T15:59:24Z</time>
      </trkpt>
      <trkpt lat="59.4374231" lon="17.9172048">
        <ele>12.2</ele>
        <time>2013-11-02T15:59:31Z</time>
      </trkpt>
      <trkpt lat="59.4374253" lon="17.9173156">
        <ele>12</ele>
        <time>2013-11-02T15:59:36Z</time>
      </trkpt>
      <trkpt lat="59.4374273" lon="17.9173472">
        <ele>12</ele>
        <time>2013-11-02T15:59:37Z</time>
      </trkpt>
      <trkpt lat="59.437439" lon="17.9173999">
        <ele>11.8</ele>
        <time>2013-11-02T15:59:39Z</time>
      </trkpt>
      <trkpt lat="59.4374552" lon="17.9174735">
        <ele>11.6</ele>
        <time>2013-11-02T15:59:42Z</time>
      </trkpt>
      <trkpt lat="59.4374527" lon="17.9176067">
        <ele>11.4</ele>
        <time>2013-11-02T15:59:46Z</time>
      </trkpt>
      <trkpt lat="59.4374519" lon="17.9176508">
        <ele>11.2</ele>
        <time>2013-11-02T15:59:47Z</time>
      </trkpt>
      <trkpt lat="59.4374597" lon="17.9179688">
        <ele>11</ele>
        <time>2013-11-02T15:59:56Z</time>
      </trkpt>
      <trkpt lat="59.4374619" lon="17.918065">
        <ele>10.8</ele>
        <time>2013-11-02T15:59:59Z</time>
      </trkpt>
      <trkpt lat="59.437466" lon="17.9181741">
        <ele>10.8</ele>
        <time>2013-11-02T16:00:02Z</time>
      </trkpt>
      <trkpt lat="59.4374835" lon="17.9184455">
        <ele>10.8</ele>
        <time>2013-11-02T16:00:10Z</time>
      </trkpt>
      <trkpt lat="59.437498" lon="17.9186804">
        <ele>11.2</ele>
        <time>2013-11-02T16:00:17Z</time>
      </trkpt>
      <trkpt lat="59.4375362" lon="17.9189508">
        <ele>11.4</ele>
        <time>2013-11-02T16:00:26Z</time>
      </trkpt>
      <trkpt lat="59.4375706" lon="17.9192253">
        <ele>11.6</ele>
        <time>2013-11-02T16:00:35Z</time>
      </trkpt>
      <trkpt lat="59.4375891" lon="17.9195466">
        <ele>12</ele>
        <time>2013-11-02T16:00:45Z</time>
      </trkpt>
      <trkpt lat="59.4375543" lon="17.9198779">
        <ele>12.8</ele>
        <time>2013-11-02T16:00:55Z</time>
      </trkpt>
      <trkpt lat="59.4375074" lon="17.9201085">
        <ele>13.6</ele>
        <time>2013-11-02T16:01:02Z</time>
      </trkpt>
      <trkpt lat="59.4374574" lon="17.9203098">
        <ele>14</ele>
        <time>2013-11-02T16:01:09Z</time>
      </trkpt>
      <trkpt lat="59.4373867" lon="17.9205848">
        <ele>14</ele>
        <time>2013-11-02T16:01:19Z</time>
      </trkpt>
      <trkpt lat="59.4373397" lon="17.9207987">
        <ele>14</ele>
        <time>2013-11-02T16:01:27Z</time>
      </trkpt>
      <trkpt lat="59.4372956" lon="17.9209738">
        <ele>14.2</ele>
        <time>2013-11-02T16:01:33Z</time>
      </trkpt>
      <trkpt lat="59.4372612" lon="17.9211407">
        <ele>14.8</ele>
        <time>2013-11-02T16:01:39Z</time>
      </trkpt>
      <trkpt lat="59.4372439" lon="17.9213403">
        <ele>15.2</ele>
        <time>2013-11-02T16:01:46Z</time>
      </trkpt>
      <trkpt lat="59.4372915" lon="17.9215355">
        <ele>15.8</ele>
        <time>2013-11-02T16:01:53Z</time>
      </trkpt>
      <trkpt lat="59.4373967" lon="17.9216301">
        <ele>16</ele>
        <time>2013-11-02T16:02:01Z</time>
      </trkpt>
      <trkpt lat="59.4374979" lon="17.9216959">
        <ele>16.4</ele>
        <time>2013-11-02T16:02:09Z</time>
      </trkpt>
      <trkpt lat="59.4375891" lon="17.921772">
        <ele>16.2</ele>
        <time>2013-11-02T16:02:17Z</time>
      </trkpt>
      <trkpt lat="59.4376851" lon="17.921816">
        <ele>16.2</ele>
        <time>2013-11-02T16:02:23Z</time>
      </trkpt>
      <trkpt lat="59.4377772" lon="17.9218565">
        <ele>16</ele>
        <time>2013-11-02T16:02:29Z</time>
      </trkpt>
      <trkpt lat="59.4378788" lon="17.9219012">
        <ele>16</ele>
        <time>2013-11-02T16:02:35Z</time>
      </trkpt>
      <trkpt lat="59.4380042" lon="17.9219178">
        <ele>15.8</ele>
        <time>2013-11-02T16:02:43Z</time>
      </trkpt>
      <trkpt lat="59.4381228" lon="17.9218715">
        <ele>15.6</ele>
        <time>2013-11-02T16:02:51Z</time>
      </trkpt>
      <trkpt lat="59.4382393" lon="17.9218109">
        <ele>15.4</ele>
        <time>2013-11-02T16:02:59Z</time>
      </trkpt>
      <trkpt lat="59.4383723" lon="17.9217107">
        <ele>15.2</ele>
        <time>2013-11-02T16:03:08Z</time>
      </trkpt>
      <trkpt lat="59.4384895" lon="17.9215561">
        <ele>15.2</ele>
        <time>2013-11-02T16:03:17Z</time>
      </trkpt>
      <trkpt lat="59.4385882" lon="17.9214014">
        <ele>15</ele>
        <time>2013-11-02T16:03:25Z</time>
      </trkpt>
      <trkpt lat="59.438677" lon="17.9212728">
        <ele>14.8</ele>
        <time>2013-11-02T16:03:32Z</time>
      </trkpt>
      <trkpt lat="59.4387511" lon="17.9211504">
        <ele>14.8</ele>
        <time>2013-11-02T16:03:38Z</time>
      </trkpt>
      <trkpt lat="59.438762" lon="17.9211201">
        <ele>14.8</ele>
        <time>2013-11-02T16:03:39Z</time>
      </trkpt>
      <trkpt lat="59.4387939" lon="17.9210193">
        <ele>14.6</ele>
        <time>2013-11-02T16:03:43Z</time>
      </trkpt>
      <trkpt lat="59.4387973" lon="17.9209774">
        <ele>14.6</ele>
        <time>2013-11-02T16:03:44Z</time>
      </trkpt>
      <trkpt lat="59.4388625" lon="17.9206448">
        <ele>14.2</ele>
        <time>2013-11-02T16:03:55Z</time>
      </trkpt>
      <trkpt lat="59.4388752" lon="17.9204629">
        <ele>14</ele>
        <time>2013-11-02T16:04:01Z</time>
      </trkpt>
      <trkpt lat="59.4388889" lon="17.9202064">
        <ele>13.8</ele>
        <time>2013-11-02T16:04:09Z</time>
      </trkpt>
      <trkpt lat="59.4389037" lon="17.9199205">
        <ele>13.4</ele>
        <time>2013-11-02T16:04:18Z</time>
      </trkpt>
      <trkpt lat="59.4389085" lon="17.9196786">
        <ele>13</ele>
        <time>2013-11-02T16:04:26Z</time>
      </trkpt>
      <trkpt lat="59.4389281" lon="17.9194398">
        <ele>12.6</ele>
        <time>2013-11-02T16:04:34Z</time>
      </trkpt>
      <trkpt lat="59.4389583" lon="17.9191421">
        <ele>12.2</ele>
        <time>2013-11-02T16:04:44Z</time>
      </trkpt>
      <trkpt lat="59.4389695" lon="17.9189433">
        <ele>11.8</ele>
        <time>2013-11-02T16:04:51Z</time>
      </trkpt>
      <trkpt lat="59.4389738" lon="17.9186624">
        <ele>11.4</ele>
        <time>2013-11-02T16:05:00Z</time>
      </trkpt>
      <trkpt lat="59.4389744" lon="17.9183766">
        <ele>11</ele>
        <time>2013-11-02T16:05:09Z</time>
      </trkpt>
      <trkpt lat="59.4389681" lon="17.9180763">
        <ele>10.8</ele>
        <time>2013-11-02T16:05:18Z</time>
      </trkpt>
      <trkpt lat="59.4389697" lon="17.9177565">
        <ele>10.6</ele>
        <time>2013-11-02T16:05:27Z</time>
      </trkpt>
      <trkpt lat="59.4389847" lon="17.917563">
        <ele>10.6</ele>
        <time>2013-11-02T16:05:33Z</time>
      </trkpt>
      <trkpt lat="59.4389925" lon="17.9175092">
        <ele>10.6</ele>
        <time>2013-11-02T16:05:35Z</time>
      </trkpt>
      <trkpt lat="59.439007" lon="17.9174151">
        <ele>10.4</ele>
        <time>2013-11-02T16:05:39Z</time>
      </trkpt>
      <trkpt lat="59.439028" lon="17.9172685">
        <ele>10.2</ele>
        <time>2013-11-02T16:05:43Z</time>
      </trkpt>
      <trkpt lat="59.4390526" lon="17.9172177">
        <ele>10.2</ele>
        <time>2013-11-02T16:05:45Z</time>
      </trkpt>
      <trkpt lat="59.4390738" lon="17.9171578">
        <ele>10</ele>
        <time>2013-11-02T16:05:47Z</time>
      </trkpt>
      <trkpt lat="59.4391473" lon="17.9169686">
        <ele>9.8</ele>
        <time>2013-11-02T16:05:54Z</time>
      </trkpt>
      <trkpt lat="59.439212" lon="17.916795">
        <ele>9.6</ele>
        <time>2013-11-02T16:06:00Z</time>
      </trkpt>
      <trkpt lat="59.4392874" lon="17.9165682">
        <ele>9.2</ele>
        <time>2013-11-02T16:06:08Z</time>
      </trkpt>
      <trkpt lat="59.4393437" lon="17.9164068">
        <ele>8.6</ele>
        <time>2013-11-02T16:06:15Z</time>
      </trkpt>
      <trkpt lat="59.4393717" lon="17.9163095">
        <ele>8.6</ele>
        <time>2013-11-02T16:06:18Z</time>
      </trkpt>
      <trkpt lat="59.4394291" lon="17.9162299">
        <ele>8.4</ele>
        <time>2013-11-02T16:06:22Z</time>
      </trkpt>
      <trkpt lat="59.4394999" lon="17.916061">
        <ele>8</ele>
        <time>2013-11-02T16:06:29Z</time>
      </trkpt>
      <trkpt lat="59.4395509" lon="17.9159446">
        <ele>7.4</ele>
        <time>2013-11-02T16:06:34Z</time>
      </trkpt>
      <trkpt lat="59.4395659" lon="17.9158965">
        <ele>7.2</ele>
        <time>2013-11-02T16:06:36Z</time>
      </trkpt>
      <trkpt lat="59.4396026" lon="17.9158077">
        <ele>6.6</ele>
        <time>2013-11-02T16:06:40Z</time>
      </trkpt>
      <trkpt lat="59.4396338" lon="17.9157343">
        <ele>6.2</ele>
        <time>2013-11-02T16:06:43Z</time>
      </trkpt>
      <trkpt lat="59.4397384" lon="17.9156253">
        <ele>5.4</ele>
        <time>2013-11-02T16:06:50Z</time>
      </trkpt>
      <trkpt lat="59.439758" lon="17.9156253">
        <ele>5.2</ele>
        <time>2013-11-02T16:06:51Z</time>
      </trkpt>
      <trkpt lat="59.4398249" lon="17.9155448">
        <ele>4.8</ele>
        <time>2013-11-02T16:06:55Z</time>
      </trkpt>
      <trkpt lat="59.4399057" lon="17.9154452">
        <ele>4.4</ele>
        <time>2013-11-02T16:07:01Z</time>
      </trkpt>
      <trkpt lat="59.44008" lon="17.9144867">
        <ele>6.2</ele>
        <time>2013-11-02T16:10:07Z</time>
      </trkpt>
      <trkpt lat="59.4401073" lon="17.9143479">
        <ele>6</ele>
        <time>2013-11-02T16:10:12Z</time>
      </trkpt>
      <trkpt lat="59.4401542" lon="17.9143089">
        <ele>5.8</ele>
        <time>2013-11-02T16:10:15Z</time>
      </trkpt>
      <trkpt lat="59.4402432" lon="17.9143681">
        <ele>5.6</ele>
        <time>2013-11-02T16:10:21Z</time>
      </trkpt>
      <trkpt lat="59.4402751" lon="17.9144219">
        <ele>5.6</ele>
        <time>2013-11-02T16:10:24Z</time>
      </trkpt>
    </trkseg>
  </trk>
</gpx>